Time,TemperatureF,DewpointF,PressureIn,WindDirection,WindDirectionDegrees,WindSpeedMPH,WindSpeedGustMPH,Humidity,HourlyPrecipIn,Conditions,Clouds,dailyrainin,SoftwareType,DateUTC
2013-02-08 00:00:00,38.0,36.4,30.00,NW,316,12.7,12.7,94,0.03,RA,,0.00,WeatherDisplay:10.37,2013-02-08 05:00:00,
2013-02-08 00:05:00,38.0,36.4,30.00,NW,322,5.8,5.8,94,0.02,-RA,,0.00,WeatherDisplay:10.37,2013-02-08 05:05:00,
2013-02-08 00:10:00,38.0,36.4,30.00,NNE,13,3.5,3.5,94,0.02,-RA,,0.00,WeatherDisplay:10.37,2013-02-08 05:10:00,
2013-02-08 00:11:00,38.0,36.4,30.00,NNW,331,3.5,3.5,94,0.02,-RA,,0.00,WeatherDisplay:10.37,2013-02-08 05:11:00,
2013-02-08 00:15:00,38.0,36.4,30.00,NW,316,6.9,6.9,94,0.02,-RA,,0.00,WeatherDisplay:10.37,2013-02-08 05:15:00,
2013-02-08 00:16:00,38.0,36.4,30.00,NW,321,5.3,5.3,94,0.02,-RA,,0.00,WeatherDisplay:10.37,2013-02-08 05:16:00,
2013-02-08 00:20:00,38.0,36.4,30.00,NW,314,2.3,2.3,94,0.01,-RA,,0.00,WeatherDisplay:10.37,2013-02-08 05:20:00,
2013-02-08 00:21:00,38.0,36.4,30.00,NNW,330,3.5,3.5,94,0.01,-RA,,0.00,WeatherDisplay:10.37,2013-02-08 05:21:00,
2013-02-08 00:25:00,38.0,36.4,30.00,WNW,291,3.5,3.5,94,0.01,-RA,,0.00,WeatherDisplay:10.37,2013-02-08 05:25:00,
2013-02-08 00:26:00,38.0,36.4,30.00,WNW,302,3.5,3.5,94,0.01,-RA,,0.00,WeatherDisplay:10.37,2013-02-08 05:26:00,
2013-02-08 00:27:00,38.0,36.4,30.00,NNW,340,3.5,3.5,94,0.01,-RA,,0.00,WeatherDisplay:10.37,2013-02-08 05:27:00,
2013-02-08 00:31:00,38.0,36.7,29.99,SE,128,2.3,2.3,95,0.01,-RA,,0.00,WeatherDisplay:10.37,2013-02-08 05:31:00,
2013-02-08 00:32:00,38.0,36.7,30.00,North,352,6.9,6.9,95,0.01,-RA,,0.00,WeatherDisplay:10.37,2013-02-08 05:32:00,
2013-02-08 00:36:00,38.1,36.8,29.99,North,353,5.8,5.8,95,0.00,-RA,,0.00,WeatherDisplay:10.37,2013-02-08 05:36:00,
2013-02-08 00:37:00,38.1,36.8,29.99,NE,39,6.9,6.9,95,0.00,-RA,,0.00,WeatherDisplay:10.37,2013-02-08 05:37:00,
2013-02-08 00:41:00,38.1,36.8,29.98,NE,34,3.5,3.5,95,0.00,-RA,,0.00,WeatherDisplay:10.37,2013-02-08 05:41:00,
2013-02-08 00:42:00,38.1,36.8,29.98,NE,34,2.3,2.3,95,0.00,-RA,,0.00,WeatherDisplay:10.37,2013-02-08 05:42:00,
2013-02-08 00:46:00,38.1,36.8,29.97,WNW,300,7.0,7.0,95,0.00,-RA,,0.00,WeatherDisplay:10.37,2013-02-08 05:46:00,
2013-02-08 00:47:00,38.1,36.8,29.97,NW,312,3.5,3.5,95,0.00,-RA,,0.00,WeatherDisplay:10.37,2013-02-08 05:47:00,
2013-02-08 00:51:00,38.1,36.8,29.97,NE,56,12.3,12.3,95,0.00,-RA,,0.00,WeatherDisplay:10.37,2013-02-08 05:51:00,
2013-02-08 00:52:00,38.1,36.8,29.97,NW,318,10.4,10.4,95,0.00,-RA,,0.00,WeatherDisplay:10.37,2013-02-08 05:52:00,
2013-02-08 00:57:00,38.1,36.5,29.97,NW,319,5.8,5.8,94,0.00,-RA,,0.00,WeatherDisplay:10.37,2013-02-08 05:57:00,
2013-02-08 01:02:00,38.1,36.5,29.97,NW,326,3.5,3.5,94,0.01,-RA,,0.01,WeatherDisplay:10.37,2013-02-08 06:02:00,
2013-02-08 01:03:00,38.1,36.5,29.96,NE,51,3.5,3.5,94,0.01,-RA,,0.01,WeatherDisplay:10.37,2013-02-08 06:03:00,
2013-02-08 01:07:00,38.1,36.5,29.96,NE,53,5.8,5.8,94,0.01,-RA,,0.01,WeatherDisplay:10.37,2013-02-08 06:07:00,
2013-02-08 01:08:00,38.0,36.4,29.96,North,356,5.8,5.8,94,0.01,-RA,,0.01,WeatherDisplay:10.37,2013-02-08 06:08:00,
2013-02-08 01:09:00,38.1,36.5,29.96,NW,312,3.5,3.5,94,0.01,-RA,,0.01,WeatherDisplay:10.37,2013-02-08 06:09:00,
2013-02-08 01:12:00,38.0,36.4,29.96,NW,322,5.8,5.8,94,0.01,-RA,,0.01,WeatherDisplay:10.37,2013-02-08 06:12:00,
2013-02-08 01:13:00,38.0,36.4,29.96,NNE,27,5.8,5.8,94,0.01,-RA,,0.01,WeatherDisplay:10.37,2013-02-08 06:13:00,
2013-02-08 01:14:00,38.0,36.4,29.96,NW,314,2.3,2.3,94,0.01,-RA,,0.01,WeatherDisplay:10.37,2013-02-08 06:14:00,
2013-02-08 01:17:00,38.0,36.7,29.96,WNW,295,3.5,3.5,95,0.01,-RA,,0.01,WeatherDisplay:10.37,2013-02-08 06:17:00,
2013-02-08 01:18:00,38.0,36.7,29.96,WNW,295,1.8,1.8,95,0.01,-RA,,0.01,WeatherDisplay:10.37,2013-02-08 06:18:00,
2013-02-08 01:19:00,38.0,36.7,29.96,North,5,3.5,3.5,95,0.01,-RA,,0.01,WeatherDisplay:10.37,2013-02-08 06:19:00,
2013-02-08 01:22:00,38.0,36.7,29.96,ENE,65,6.9,6.9,95,0.01,-RA,,0.01,WeatherDisplay:10.37,2013-02-08 06:22:00,
2013-02-08 01:23:00,38.0,36.7,29.96,NNW,336,6.9,6.9,95,0.01,-RA,,0.01,WeatherDisplay:10.37,2013-02-08 06:23:00,
2013-02-08 01:25:00,38.0,36.7,29.96,NNW,347,3.5,3.5,95,0.01,-RA,,0.01,WeatherDisplay:10.37,2013-02-08 06:25:00,
2013-02-08 01:27:00,38.0,36.7,29.96,NW,325,3.5,3.5,95,0.01,-RA,,0.01,WeatherDisplay:10.37,2013-02-08 06:27:00,
2013-02-08 01:28:00,38.0,36.7,29.96,NNW,330,3.5,3.5,95,0.01,-RA,,0.01,WeatherDisplay:10.37,2013-02-08 06:28:00,
2013-02-08 01:29:00,38.0,36.7,29.95,NE,41,6.9,6.9,95,0.01,-RA,,0.01,WeatherDisplay:10.37,2013-02-08 06:29:00,
2013-02-08 01:30:00,37.9,36.6,29.95,NE,44,5.8,5.8,95,0.01,-RA,,0.01,WeatherDisplay:10.37,2013-02-08 06:30:00,
2013-02-08 01:32:00,37.9,36.3,29.95,North,349,8.7,8.7,94,0.01,-RA,,0.01,WeatherDisplay:10.37,2013-02-08 06:32:00,
2013-02-08 01:33:00,37.9,36.3,29.95,NNW,336,6.9,6.9,94,0.01,-RA,,0.01,WeatherDisplay:10.37,2013-02-08 06:33:00,
2013-02-08 01:34:00,37.9,36.3,29.95,North,5,9.2,9.2,94,0.01,-RA,,0.01,WeatherDisplay:10.37,2013-02-08 06:34:00,
2013-02-08 01:36:00,37.9,36.3,29.95,NE,34,6.9,6.9,94,0.01,-RA,,0.01,WeatherDisplay:10.37,2013-02-08 06:36:00,
2013-02-08 01:38:00,37.9,36.3,29.95,NW,319,3.5,3.5,94,0.01,-RA,,0.01,WeatherDisplay:10.37,2013-02-08 06:38:00,
2013-02-08 01:39:00,37.9,36.3,29.95,North,6,2.3,2.3,94,0.01,-RA,,0.01,WeatherDisplay:10.37,2013-02-08 06:39:00,
2013-02-08 01:41:00,37.9,36.3,29.95,NNW,345,6.9,6.9,94,0.01,-RA,,0.01,WeatherDisplay:10.37,2013-02-08 06:41:00,
2013-02-08 01:43:00,37.9,36.3,29.95,NNW,329,3.5,3.5,94,0.01,-RA,,0.01,WeatherDisplay:10.37,2013-02-08 06:43:00,
2013-02-08 01:44:00,37.8,36.2,29.95,NNE,19,10.4,10.4,94,0.01,-RA,,0.01,WeatherDisplay:10.37,2013-02-08 06:44:00,
2013-02-08 01:46:00,37.8,36.5,29.95,NW,316,2.3,2.3,95,0.01,-RA,,0.01,WeatherDisplay:10.37,2013-02-08 06:46:00,
2013-02-08 01:48:00,37.8,36.5,29.95,NW,312,3.5,3.5,95,0.01,-RA,,0.01,WeatherDisplay:10.37,2013-02-08 06:48:00,
2013-02-08 01:49:00,37.8,36.5,29.94,NNE,32,3.5,3.5,95,0.01,-RA,,0.01,WeatherDisplay:10.37,2013-02-08 06:49:00,
2013-02-08 01:52:00,37.8,36.5,29.94,East,86,10.4,10.4,95,0.01,-RA,,0.01,WeatherDisplay:10.37,2013-02-08 06:52:00,
2013-02-08 01:53:00,37.8,36.5,29.94,NNW,337,10.4,10.4,95,0.01,-RA,,0.01,WeatherDisplay:10.37,2013-02-08 06:53:00,
2013-02-08 01:54:00,37.7,36.4,29.94,NNE,13,10.4,10.4,95,0.01,-RA,,0.01,WeatherDisplay:10.37,2013-02-08 06:54:00,
2013-02-08 01:55:00,37.7,36.4,29.94,NE,43,7.0,7.0,95,0.01,-RA,,0.01,WeatherDisplay:10.37,2013-02-08 06:55:00,
2013-02-08 01:58:00,37.7,36.4,29.94,NW,316,5.8,5.8,95,0.01,-RA,,0.01,WeatherDisplay:10.37,2013-02-08 06:58:00,
2013-02-08 01:59:00,37.7,36.4,29.94,ENE,63,5.8,5.8,95,0.00,-RA,,0.01,WeatherDisplay:10.37,2013-02-08 06:59:00,
2013-02-08 02:00:00,37.7,36.4,29.94,NNW,347,6.9,6.9,95,0.00,-RA,,0.01,WeatherDisplay:10.37,2013-02-08 07:00:00,
2013-02-08 02:03:00,37.7,36.1,29.94,NNW,335,3.5,3.5,94,0.00,OVC,,0.01,WeatherDisplay:10.37,2013-02-08 07:03:00,
2013-02-08 02:04:00,37.7,36.1,29.94,ENE,64,10.4,10.4,94,0.00,OVC,,0.01,WeatherDisplay:10.37,2013-02-08 07:04:00,
2013-02-08 02:05:00,37.7,36.1,29.94,ENE,67,10.5,10.5,94,0.00,OVC,,0.01,WeatherDisplay:10.37,2013-02-08 07:05:00,
2013-02-08 02:08:00,37.7,36.1,29.93,ENE,71,5.8,5.8,94,0.00,OVC,,0.01,WeatherDisplay:10.37,2013-02-08 07:08:00,
2013-02-08 02:09:00,37.7,36.1,29.93,East,96,3.5,3.5,94,0.00,OVC,,0.01,WeatherDisplay:10.37,2013-02-08 07:09:00,
2013-02-08 02:11:00,37.7,36.1,29.93,SSW,204,5.8,5.8,94,0.00,OVC,,0.01,WeatherDisplay:10.37,2013-02-08 07:11:00,
2013-02-08 02:13:00,37.7,36.1,29.93,East,96,5.8,5.8,94,0.00,OVC,,0.01,WeatherDisplay:10.37,2013-02-08 07:13:00,
2013-02-08 02:15:00,37.7,36.1,29.93,North,7,6.9,6.9,94,0.00,OVC,,0.01,WeatherDisplay:10.37,2013-02-08 07:15:00,
2013-02-08 02:16:00,37.7,36.1,29.93,NNE,30,6.9,6.9,94,0.00,OVC,,0.01,WeatherDisplay:10.37,2013-02-08 07:16:00,
2013-02-08 02:18:00,37.7,36.1,29.93,WNW,283,3.5,3.5,94,0.00,OVC,,0.01,WeatherDisplay:10.37,2013-02-08 07:18:00,
2013-02-08 02:20:00,37.7,36.1,29.92,North,355,3.5,3.5,94,0.00,OVC,,0.01,WeatherDisplay:10.37,2013-02-08 07:20:00,
2013-02-08 02:21:00,37.7,36.1,29.92,NE,54,5.3,5.3,94,0.00,OVC,,0.01,WeatherDisplay:10.37,2013-02-08 07:21:00,
2013-02-08 02:23:00,37.7,36.1,29.92,North,8,5.8,5.8,94,0.00,OVC,,0.01,WeatherDisplay:10.37,2013-02-08 07:23:00,
2013-02-08 02:26:00,37.7,36.1,29.92,ENE,65,9.2,9.2,94,0.00,OVC,,0.01,WeatherDisplay:10.37,2013-02-08 07:26:00,
2013-02-08 02:28:00,37.6,36.0,29.92,NNW,328,6.9,6.9,94,0.00,OVC,,0.01,WeatherDisplay:10.37,2013-02-08 07:28:00,
2013-02-08 02:29:00,37.6,36.0,29.92,NE,49,6.9,6.9,94,0.00,OVC,,0.01,WeatherDisplay:10.37,2013-02-08 07:29:00,
2013-02-08 02:31:00,37.6,36.0,29.93,North,355,8.7,8.7,94,0.00,OVC,,0.01,WeatherDisplay:10.37,2013-02-08 07:31:00,
2013-02-08 02:32:00,37.6,36.0,29.93,North,3,9.2,9.2,94,0.00,OVC,,0.01,WeatherDisplay:10.37,2013-02-08 07:32:00,
2013-02-08 02:33:00,37.6,36.0,29.93,NE,35,3.5,3.5,94,0.00,OVC,,0.01,WeatherDisplay:10.37,2013-02-08 07:33:00,
2013-02-08 02:34:00,37.6,36.0,29.93,NE,36,3.5,3.5,94,0.00,OVC,,0.01,WeatherDisplay:10.37,2013-02-08 07:34:00,
2013-02-08 02:36:00,37.6,36.0,29.93,NNE,12,5.8,5.8,94,0.00,OVC,,0.01,WeatherDisplay:10.37,2013-02-08 07:36:00,
2013-02-08 02:37:00,37.6,36.0,29.92,North,7,3.5,3.5,94,0.00,OVC,,0.01,WeatherDisplay:10.37,2013-02-08 07:37:00,
2013-02-08 02:38:00,37.6,36.0,29.92,NE,46,3.5,3.5,94,0.00,OVC,,0.01,WeatherDisplay:10.37,2013-02-08 07:38:00,
2013-02-08 02:39:00,37.6,36.0,29.92,NE,41,3.5,4.1,94,0.00,OVC,,0.01,WeatherDisplay:10.37,2013-02-08 07:39:00,
2013-02-08 02:41:00,37.6,36.0,29.92,NE,49,6.9,6.9,94,0.00,OVC,,0.01,WeatherDisplay:10.37,2013-02-08 07:41:00,
2013-02-08 02:42:00,37.6,36.0,29.92,East,79,5.8,5.8,94,0.00,OVC,,0.01,WeatherDisplay:10.37,2013-02-08 07:42:00,
2013-02-08 02:44:00,37.6,36.0,29.92,NW,305,10.5,10.5,94,0.00,OVC,,0.01,WeatherDisplay:10.37,2013-02-08 07:44:00,
2013-02-08 02:46:00,37.7,36.1,29.92,NE,52,5.8,5.8,94,0.00,OVC,,0.01,WeatherDisplay:10.37,2013-02-08 07:46:00,
2013-02-08 02:48:00,37.6,36.0,29.91,NNE,25,7.0,7.0,94,0.00,OVC,,0.01,WeatherDisplay:10.37,2013-02-08 07:48:00,
2013-02-08 02:49:00,37.6,36.0,29.91,NNW,331,6.9,6.9,94,0.00,OVC,,0.01,WeatherDisplay:10.37,2013-02-08 07:49:00,
2013-02-08 02:51:00,37.7,36.1,29.91,NNE,19,9.2,9.2,94,0.00,OVC,,0.01,WeatherDisplay:10.37,2013-02-08 07:51:00,
2013-02-08 02:53:00,37.7,36.1,29.91,NNE,31,5.8,5.8,94,0.00,OVC,,0.01,WeatherDisplay:10.37,2013-02-08 07:53:00,
2013-02-08 02:54:00,37.6,36.0,29.91,NNW,338,3.5,4.3,94,0.00,OVC,,0.01,WeatherDisplay:10.37,2013-02-08 07:54:00,
2013-02-08 02:56:00,37.7,36.1,29.91,NNW,330,2.3,2.3,94,0.00,OVC,,0.01,WeatherDisplay:10.37,2013-02-08 07:56:00,
2013-02-08 02:58:00,37.7,36.1,29.91,NNW,347,5.8,5.8,94,0.00,OVC,,0.01,WeatherDisplay:10.37,2013-02-08 07:58:00,
2013-02-08 02:59:00,37.7,36.1,29.91,NNE,22,10.4,10.4,94,0.00,OVC,,0.01,WeatherDisplay:10.37,2013-02-08 07:59:00,
2013-02-08 03:00:00,37.7,36.1,29.92,NNE,13,10.4,10.4,94,0.00,OVC,,0.01,WeatherDisplay:10.37,2013-02-08 08:00:00,
2013-02-08 03:02:00,37.7,36.1,29.92,North,349,3.5,3.5,94,0.00,OVC,,0.01,WeatherDisplay:10.37,2013-02-08 08:02:00,
2013-02-08 03:03:00,37.7,36.1,29.92,NNW,330,3.5,3.5,94,0.00,OVC,,0.01,WeatherDisplay:10.37,2013-02-08 08:03:00,
2013-02-08 03:04:00,37.7,36.1,29.91,NE,43,6.9,6.9,94,0.00,OVC,,0.01,WeatherDisplay:10.37,2013-02-08 08:04:00,
2013-02-08 03:05:00,37.7,36.1,29.92,NE,43,5.8,5.8,94,0.00,OVC,,0.01,WeatherDisplay:10.37,2013-02-08 08:05:00,
2013-02-08 03:07:00,37.7,36.1,29.91,WNW,293,2.3,2.3,94,0.00,OVC,,0.01,WeatherDisplay:10.37,2013-02-08 08:07:00,
2013-02-08 03:08:00,37.7,36.1,29.91,NNE,32,5.8,5.8,94,0.00,OVC,,0.01,WeatherDisplay:10.37,2013-02-08 08:08:00,
2013-02-08 03:09:00,37.7,36.1,29.91,North,357,6.9,6.9,94,0.00,OVC,,0.01,WeatherDisplay:10.37,2013-02-08 08:09:00,
2013-02-08 03:10:00,37.7,36.1,29.91,NW,319,6.9,6.9,94,0.00,OVC,,0.01,WeatherDisplay:10.37,2013-02-08 08:10:00,
2013-02-08 03:13:00,37.7,36.1,29.92,ENE,61,3.5,3.5,94,0.00,OVC,,0.01,WeatherDisplay:10.37,2013-02-08 08:13:00,
2013-02-08 03:14:00,37.8,36.2,29.92,WNW,294,2.3,2.3,94,0.00,OVC,,0.01,WeatherDisplay:10.37,2013-02-08 08:14:00,
2013-02-08 03:15:00,37.7,36.1,29.92,NW,309,3.5,3.5,94,0.00,OVC,,0.01,WeatherDisplay:10.37,2013-02-08 08:15:00,
2013-02-08 03:18:00,37.8,36.2,29.92,North,351,6.9,6.9,94,0.00,OVC,,0.01,WeatherDisplay:10.37,2013-02-08 08:18:00,
2013-02-08 03:19:00,37.8,36.2,29.92,NNW,340,5.8,5.8,94,0.00,OVC,,0.01,WeatherDisplay:10.37,2013-02-08 08:19:00,
2013-02-08 03:20:00,37.8,36.2,29.92,NW,321,5.8,5.8,94,0.00,OVC,,0.01,WeatherDisplay:10.37,2013-02-08 08:20:00,
2013-02-08 03:23:00,37.8,36.2,29.92,NNE,12,9.2,9.2,94,0.00,OVC,,0.01,WeatherDisplay:10.37,2013-02-08 08:23:00,
2013-02-08 03:25:00,37.8,36.2,29.92,NW,316,5.8,5.8,94,0.00,OVC,,0.01,WeatherDisplay:10.37,2013-02-08 08:25:00,
2013-02-08 03:28:00,37.8,36.2,29.92,WNW,290,5.8,5.8,94,0.00,OVC,,0.01,WeatherDisplay:10.37,2013-02-08 08:28:00,
2013-02-08 03:30:00,37.9,36.3,29.92,SW,233,5.8,5.8,94,0.00,OVC,,0.01,WeatherDisplay:10.37,2013-02-08 08:30:00,
2013-02-08 03:31:00,37.9,36.3,29.92,South,186,5.8,5.8,94,0.00,OVC,,0.01,WeatherDisplay:10.37,2013-02-08 08:31:00,
2013-02-08 03:33:00,37.9,36.3,29.92,North,351,3.5,3.5,94,0.00,OVC,,0.01,WeatherDisplay:10.37,2013-02-08 08:33:00,
2013-02-08 03:35:00,37.9,36.3,29.92,NW,314,5.8,5.8,94,0.00,OVC,,0.01,WeatherDisplay:10.37,2013-02-08 08:35:00,
2013-02-08 03:36:00,37.9,36.3,29.92,NW,311,3.5,3.5,94,0.00,OVC,,0.01,WeatherDisplay:10.37,2013-02-08 08:36:00,
2013-02-08 03:38:00,37.9,36.3,29.92,NW,316,5.8,5.8,94,0.00,OVC,,0.01,WeatherDisplay:10.37,2013-02-08 08:38:00,
2013-02-08 03:40:00,37.9,36.3,29.92,NW,304,9.2,9.2,94,0.00,OVC,,0.01,WeatherDisplay:10.37,2013-02-08 08:40:00,
2013-02-08 03:41:00,37.9,36.3,29.92,North,355,5.8,5.8,94,0.00,OVC,,0.01,WeatherDisplay:10.37,2013-02-08 08:41:00,
2013-02-08 03:42:00,37.9,36.3,29.92,West,265,3.5,3.5,94,0.00,OVC,,0.01,WeatherDisplay:10.37,2013-02-08 08:42:00,
2013-02-08 03:45:00,37.9,36.3,29.92,NW,325,2.3,2.3,94,0.00,OVC,,0.01,WeatherDisplay:10.37,2013-02-08 08:45:00,
2013-02-08 03:46:00,37.8,36.2,29.92,NW,325,2.3,0.0,94,0.00,OVC,,0.01,WeatherDisplay:10.37,2013-02-08 08:46:00,
2013-02-08 03:48:00,37.9,36.3,29.92,WSW,248,3.5,3.5,94,0.00,OVC,,0.01,WeatherDisplay:10.37,2013-02-08 08:48:00,
2013-02-08 03:50:00,37.8,36.2,29.92,WNW,298,3.5,3.5,94,0.00,OVC,,0.01,WeatherDisplay:10.37,2013-02-08 08:50:00,
2013-02-08 03:51:00,37.8,36.2,29.92,NE,49,3.5,3.5,94,0.00,OVC,,0.01,WeatherDisplay:10.37,2013-02-08 08:51:00,
2013-02-08 03:52:00,37.9,36.3,29.92,NNW,331,5.3,5.3,94,0.00,OVC,,0.01,WeatherDisplay:10.37,2013-02-08 08:52:00,
2013-02-08 03:53:00,37.8,36.2,29.92,NE,38,5.8,5.8,94,0.00,OVC,,0.01,WeatherDisplay:10.37,2013-02-08 08:53:00,
2013-02-08 03:55:00,37.9,36.3,29.92,North,352,2.3,2.3,94,0.00,OVC,,0.01,WeatherDisplay:10.37,2013-02-08 08:55:00,
2013-02-08 03:56:00,37.9,36.3,29.92,WNW,289,2.3,2.3,94,0.00,OVC,,0.01,WeatherDisplay:10.37,2013-02-08 08:56:00,
2013-02-08 03:57:00,37.9,36.3,29.92,NW,312,3.5,3.5,94,0.00,OVC,,0.01,WeatherDisplay:10.37,2013-02-08 08:57:00,
2013-02-08 03:58:00,37.8,36.2,29.93,West,281,3.5,3.5,94,0.00,OVC,,0.01,WeatherDisplay:10.37,2013-02-08 08:58:00,
2013-02-08 04:00:00,37.9,36.3,29.93,NW,323,5.8,5.8,94,0.00,OVC,,0.01,WeatherDisplay:10.37,2013-02-08 09:00:00,
2013-02-08 04:01:00,37.9,36.3,29.93,North,354,5.8,5.8,94,0.00,OVC,,0.01,WeatherDisplay:10.37,2013-02-08 09:01:00,
2013-02-08 04:02:00,37.9,36.3,29.93,NW,312,5.8,5.8,94,0.00,OVC,,0.01,WeatherDisplay:10.37,2013-02-08 09:02:00,
2013-02-08 04:03:00,37.9,36.3,29.93,NW,323,5.8,5.8,94,0.00,OVC,,0.01,WeatherDisplay:10.37,2013-02-08 09:03:00,
2013-02-08 04:05:00,37.9,36.3,29.93,NW,307,5.8,5.8,94,0.00,OVC,,0.01,WeatherDisplay:10.37,2013-02-08 09:05:00,
2013-02-08 04:06:00,37.9,36.3,29.93,North,355,3.5,3.5,94,0.00,OVC,,0.01,WeatherDisplay:10.37,2013-02-08 09:06:00,
2013-02-08 04:07:00,37.9,36.3,29.93,NW,305,5.8,5.8,94,0.00,OVC,,0.01,WeatherDisplay:10.37,2013-02-08 09:07:00,
2013-02-08 04:09:00,37.9,36.3,29.93,NNE,33,3.5,3.5,94,0.00,OVC,,0.01,WeatherDisplay:10.37,2013-02-08 09:09:00,
2013-02-08 04:10:00,37.9,36.3,29.93,NW,316,3.5,3.5,94,0.00,OVC,,0.01,WeatherDisplay:10.37,2013-02-08 09:10:00,
2013-02-08 04:11:00,37.9,36.3,29.93,WNW,287,2.3,2.3,94,0.00,OVC,,0.01,WeatherDisplay:10.37,2013-02-08 09:11:00,
2013-02-08 04:13:00,37.9,36.3,29.93,NE,43,7.0,7.0,94,0.00,OVC,,0.01,WeatherDisplay:10.37,2013-02-08 09:13:00,
2013-02-08 04:14:00,38.0,36.4,29.93,NNW,337,2.0,9.0,94,0.00,OVC,,0.01,WeatherDisplay:10.37,2013-02-08 09:14:00,
2013-02-08 04:15:00,38.0,36.4,29.93,NW,325,5.3,5.3,94,0.00,OVC,,0.01,WeatherDisplay:10.37,2013-02-08 09:15:00,
2013-02-08 04:17:00,38.0,36.4,29.93,NW,314,6.9,6.9,94,0.00,OVC,,0.01,WeatherDisplay:10.37,2013-02-08 09:17:00,
2013-02-08 04:18:00,38.0,36.4,29.93,NW,315,2.3,2.3,94,0.00,OVC,,0.01,WeatherDisplay:10.37,2013-02-08 09:18:00,
2013-02-08 04:19:00,38.0,36.4,29.93,NW,314,0.0,0.0,94,0.00,OVC,,0.01,WeatherDisplay:10.37,2013-02-08 09:19:00,
2013-02-08 04:20:00,38.1,36.5,29.93,NNW,339,5.3,5.3,94,0.00,OVC,,0.01,WeatherDisplay:10.37,2013-02-08 09:20:00,
2013-02-08 04:22:00,38.0,36.4,29.93,WNW,302,5.8,5.8,94,0.00,OVC,,0.01,WeatherDisplay:10.37,2013-02-08 09:22:00,
2013-02-08 04:23:00,38.1,36.5,29.93,NW,316,5.8,5.8,94,0.00,OVC,,0.01,WeatherDisplay:10.37,2013-02-08 09:23:00,
2013-02-08 04:24:00,38.1,36.5,29.93,NNE,13,2.3,2.3,94,0.00,OVC,,0.01,WeatherDisplay:10.37,2013-02-08 09:24:00,
2013-02-08 04:25:00,38.1,36.5,29.93,NNW,338,2.3,2.3,94,0.00,OVC,,0.01,WeatherDisplay:10.37,2013-02-08 09:25:00,
2013-02-08 04:27:00,38.1,36.5,29.92,NNW,336,8.7,8.7,94,0.00,OVC,,0.01,WeatherDisplay:10.37,2013-02-08 09:27:00,
2013-02-08 04:28:00,38.1,36.5,29.92,NW,322,9.2,9.2,94,0.00,OVC,,0.01,WeatherDisplay:10.37,2013-02-08 09:28:00,
2013-02-08 04:30:00,38.1,36.3,29.92,NNW,327,6.9,6.9,93,0.00,OVC,,0.01,WeatherDisplay:10.37,2013-02-08 09:30:00,
2013-02-08 04:32:00,38.1,36.3,29.92,North,356,3.5,3.5,93,0.00,OVC,,0.01,WeatherDisplay:10.37,2013-02-08 09:32:00,
2013-02-08 04:33:00,38.1,36.3,29.92,North,349,2.3,2.3,93,0.00,OVC,,0.01,WeatherDisplay:10.37,2013-02-08 09:33:00,
2013-02-08 04:35:00,38.2,36.4,29.92,NNW,327,5.8,5.8,93,0.00,OVC,,0.01,WeatherDisplay:10.37,2013-02-08 09:35:00,
2013-02-08 04:36:00,38.2,36.4,29.92,NNW,328,5.8,5.8,93,0.00,OVC,,0.01,WeatherDisplay:10.37,2013-02-08 09:36:00,
2013-02-08 04:37:00,38.2,36.4,29.92,NE,54,3.5,3.5,93,0.00,OVC,,0.01,WeatherDisplay:10.37,2013-02-08 09:37:00,
2013-02-08 04:39:00,38.2,36.6,29.92,WSW,245,3.5,3.5,94,0.00,OVC,,0.01,WeatherDisplay:10.37,2013-02-08 09:39:00,
2013-02-08 04:41:00,38.2,36.6,29.92,WSW,245,2.3,2.3,94,0.00,OVC,,0.01,WeatherDisplay:10.37,2013-02-08 09:41:00,
2013-02-08 04:42:00,38.2,36.6,29.92,North,349,5.3,5.3,94,0.00,OVC,,0.01,WeatherDisplay:10.37,2013-02-08 09:42:00,
2013-02-08 04:44:00,38.2,36.6,29.92,NNW,340,5.8,5.8,94,0.00,OVC,,0.01,WeatherDisplay:10.37,2013-02-08 09:44:00,
2013-02-08 04:46:00,38.3,36.7,29.92,NNW,340,2.3,2.3,94,0.00,OVC,,0.01,WeatherDisplay:10.37,2013-02-08 09:46:00,
2013-02-08 04:47:00,38.3,36.5,29.92,NNW,340,2.3,2.3,93,0.00,OVC,,0.01,WeatherDisplay:10.37,2013-02-08 09:47:00,
2013-02-08 04:49:00,38.3,36.7,29.92,NNW,340,0.0,0.0,94,0.00,OVC,,0.01,WeatherDisplay:10.37,2013-02-08 09:49:00,
2013-02-08 04:51:00,38.3,36.7,29.92,NNW,343,5.8,5.8,94,0.00,OVC,,0.01,WeatherDisplay:10.37,2013-02-08 09:51:00,
2013-02-08 04:52:00,38.3,36.7,29.92,NNW,330,3.5,3.5,94,0.00,OVC,,0.01,WeatherDisplay:10.37,2013-02-08 09:52:00,
2013-02-08 04:55:00,38.4,36.8,29.92,WNW,289,3.5,3.5,94,0.00,OVC,,0.01,WeatherDisplay:10.37,2013-02-08 09:55:00,
2013-02-08 04:56:00,38.4,36.8,29.92,NW,312,3.5,3.5,94,0.00,OVC,,0.01,WeatherDisplay:10.37,2013-02-08 09:56:00,
2013-02-08 04:57:00,38.4,36.8,29.92,North,351,3.5,3.5,94,0.00,OVC,,0.01,WeatherDisplay:10.37,2013-02-08 09:57:00,
2013-02-08 04:58:00,38.4,36.8,29.92,North,351,3.5,3.5,94,0.00,OVC,,0.01,WeatherDisplay:10.37,2013-02-08 09:58:00,
2013-02-08 05:00:00,38.4,36.8,29.91,North,351,2.3,2.3,94,0.00,OVC,,0.01,WeatherDisplay:10.37,2013-02-08 10:00:00,
2013-02-08 05:01:00,38.5,36.9,29.91,NW,318,5.8,5.8,94,0.00,OVC,,0.01,WeatherDisplay:10.37,2013-02-08 10:01:00,
2013-02-08 05:02:00,38.5,36.9,29.91,NNW,330,3.5,3.5,94,0.00,OVC,,0.01,WeatherDisplay:10.37,2013-02-08 10:02:00,
2013-02-08 05:03:00,38.5,36.9,29.91,North,3,2.3,3.1,94,0.00,OVC,,0.01,WeatherDisplay:10.37,2013-02-08 10:03:00,
2013-02-08 05:05:00,38.5,36.9,29.91,North,4,2.3,2.3,94,0.00,OVC,,0.01,WeatherDisplay:10.37,2013-02-08 10:05:00,
2013-02-08 05:07:00,38.5,36.9,29.91,North,4,2.3,2.3,94,0.00,OVC,,0.01,WeatherDisplay:10.37,2013-02-08 10:07:00,
2013-02-08 05:08:00,38.5,36.9,29.91,North,4,2.3,2.3,94,0.00,OVC,,0.01,WeatherDisplay:10.37,2013-02-08 10:08:00,
2013-02-08 05:10:00,38.5,36.9,29.91,NNE,26,2.3,2.3,94,0.00,OVC,,0.01,WeatherDisplay:10.37,2013-02-08 10:10:00,
2013-02-08 05:12:00,38.5,36.9,29.91,NNW,333,3.5,3.6,94,0.00,OVC,,0.01,WeatherDisplay:10.37,2013-02-08 10:12:00,
2013-02-08 05:13:00,38.5,36.9,29.91,NNE,29,9.2,9.2,94,0.00,OVC,,0.01,WeatherDisplay:10.37,2013-02-08 10:13:00,
2013-02-08 05:14:00,38.6,37.0,29.91,North,3,6.9,6.9,94,0.00,OVC,,0.01,WeatherDisplay:10.37,2013-02-08 10:14:00,
2013-02-08 05:15:00,38.6,37.0,29.91,ENE,71,3.5,3.5,94,0.00,OVC,,0.01,WeatherDisplay:10.37,2013-02-08 10:15:00,
2013-02-08 05:17:00,38.6,37.0,29.91,NE,41,3.5,3.5,94,0.00,OVC,,0.01,WeatherDisplay:10.37,2013-02-08 10:17:00,
2013-02-08 05:18:00,38.6,37.0,29.91,NW,321,3.5,3.5,94,0.00,OVC,,0.01,WeatherDisplay:10.37,2013-02-08 10:18:00,
2013-02-08 05:19:00,38.6,37.0,29.91,NNW,336,3.5,3.5,94,0.00,OVC,,0.01,WeatherDisplay:10.37,2013-02-08 10:19:00,
2013-02-08 05:20:00,38.6,36.8,29.90,NW,311,3.5,3.5,93,0.00,OVC,,0.01,WeatherDisplay:10.37,2013-02-08 10:20:00,
2013-02-08 05:22:00,38.6,36.8,29.91,NW,318,3.5,3.5,93,0.00,OVC,,0.01,WeatherDisplay:10.37,2013-02-08 10:22:00,
2013-02-08 05:23:00,38.6,36.8,29.91,NW,318,3.5,0.0,93,0.00,OVC,,0.01,WeatherDisplay:10.37,2013-02-08 10:23:00,
2013-02-08 05:24:00,38.6,36.8,29.91,NW,316,3.5,3.5,93,0.00,OVC,,0.01,WeatherDisplay:10.37,2013-02-08 10:24:00,
2013-02-08 05:25:00,38.6,36.8,29.91,NW,315,3.5,3.5,93,0.00,OVC,,0.01,WeatherDisplay:10.37,2013-02-08 10:25:00,
2013-02-08 05:27:00,38.6,36.8,29.91,NW,325,3.5,3.5,93,0.00,OVC,,0.01,WeatherDisplay:10.37,2013-02-08 10:27:00,
2013-02-08 05:28:00,38.6,37.0,29.91,NE,41,5.8,5.8,94,0.00,OVC,,0.01,WeatherDisplay:10.37,2013-02-08 10:28:00,
2013-02-08 05:29:00,38.6,37.0,29.91,NNW,333,5.8,5.8,94,0.00,OVC,,0.01,WeatherDisplay:10.37,2013-02-08 10:29:00,
2013-02-08 05:31:00,38.6,37.0,29.91,NNW,330,5.8,5.8,94,0.00,OVC,,0.01,WeatherDisplay:10.37,2013-02-08 10:31:00,
2013-02-08 05:33:00,38.6,37.0,29.91,North,10,6.9,6.9,94,0.00,OVC,,0.01,WeatherDisplay:10.37,2013-02-08 10:33:00,
2013-02-08 05:34:00,38.6,37.0,29.91,North,3,3.5,3.5,94,0.00,OVC,,0.01,WeatherDisplay:10.37,2013-02-08 10:34:00,
2013-02-08 05:36:00,38.6,37.0,29.91,NNW,333,3.5,3.5,94,0.00,OVC,,0.01,WeatherDisplay:10.37,2013-02-08 10:36:00,
2013-02-08 05:38:00,38.6,36.8,29.91,NW,321,5.8,5.8,93,0.00,OVC,,0.01,WeatherDisplay:10.37,2013-02-08 10:38:00,
2013-02-08 05:39:00,38.6,36.8,29.91,NNW,337,5.8,5.8,93,0.00,OVC,,0.01,WeatherDisplay:10.37,2013-02-08 10:39:00,
2013-02-08 05:40:00,38.6,36.8,29.91,NW,325,3.5,3.5,93,0.00,OVC,,0.01,WeatherDisplay:10.37,2013-02-08 10:40:00,
2013-02-08 05:41:00,38.6,36.8,29.91,NW,325,3.5,3.5,93,0.00,OVC,,0.01,WeatherDisplay:10.37,2013-02-08 10:41:00,
2013-02-08 05:43:00,38.6,36.8,29.91,NNW,345,9.2,9.2,93,0.00,OVC,,0.01,WeatherDisplay:10.37,2013-02-08 10:43:00,
2013-02-08 05:44:00,38.6,37.0,29.91,NW,316,6.9,6.9,94,0.00,OVC,,0.01,WeatherDisplay:10.37,2013-02-08 10:44:00,
2013-02-08 05:46:00,38.6,36.8,29.91,WNW,302,3.5,0.0,93,0.00,OVC,,0.01,WeatherDisplay:10.37,2013-02-08 10:46:00,
2013-02-08 05:48:00,38.6,36.8,29.91,NNW,328,3.5,3.5,93,0.00,OVC,,0.01,WeatherDisplay:10.37,2013-02-08 10:48:00,
2013-02-08 05:50:00,38.6,36.8,29.91,NNW,327,3.5,3.5,93,0.00,OVC,,0.01,WeatherDisplay:10.37,2013-02-08 10:50:00,
2013-02-08 05:51:00,38.6,36.8,29.91,NW,310,3.5,3.5,93,0.00,OVC,,0.01,WeatherDisplay:10.37,2013-02-08 10:51:00,
2013-02-08 05:53:00,38.6,36.8,29.91,NW,311,2.3,0.0,93,0.00,OVC,,0.01,WeatherDisplay:10.37,2013-02-08 10:53:00,
2013-02-08 05:55:00,38.5,36.7,29.91,NW,310,0.0,0.3,93,0.00,OVC,,0.01,WeatherDisplay:10.37,2013-02-08 10:55:00,
2013-02-08 05:57:00,38.5,36.9,29.91,NW,310,2.3,0.0,94,0.00,OVC,,0.01,WeatherDisplay:10.37,2013-02-08 10:57:00,
2013-02-08 05:59:00,38.5,36.9,29.91,NW,310,2.3,2.3,94,0.00,OVC,,0.01,WeatherDisplay:10.37,2013-02-08 10:59:00,
2013-02-08 06:00:00,38.5,36.9,29.91,NW,311,2.3,2.3,94,0.00,OVC,,0.01,WeatherDisplay:10.37,2013-02-08 11:00:00,
2013-02-08 06:02:00,38.5,36.9,29.91,NW,311,1.8,1.8,94,0.00,OVC,,0.01,WeatherDisplay:10.37,2013-02-08 11:02:00,
2013-02-08 06:05:00,38.5,36.9,29.91,NW,318,0.0,0.0,94,0.00,OVC,,0.01,WeatherDisplay:10.37,2013-02-08 11:05:00,
2013-02-08 06:07:00,38.5,36.9,29.91,NW,318,0.0,0.0,94,0.00,OVC,,0.01,WeatherDisplay:10.37,2013-02-08 11:07:00,
2013-02-08 06:10:00,38.4,36.8,29.91,NE,51,2.3,2.3,94,0.00,OVC,,0.01,WeatherDisplay:10.37,2013-02-08 11:10:00,
2013-02-08 06:12:00,38.4,36.8,29.90,NE,51,0.0,0.0,94,0.00,OVC,,0.01,WeatherDisplay:10.37,2013-02-08 11:12:00,
2013-02-08 06:15:00,38.3,36.7,29.91,NW,311,2.3,2.3,94,0.00,OVC,,0.01,WeatherDisplay:10.37,2013-02-08 11:15:00,
2013-02-08 06:18:00,38.3,36.7,29.91,NW,309,0.0,0.0,94,0.00,OVC,,0.01,WeatherDisplay:10.37,2013-02-08 11:18:00,
2013-02-08 06:20:00,38.2,36.6,29.91,NW,309,0.0,0.0,94,0.00,OVC,,0.01,WeatherDisplay:10.37,2013-02-08 11:20:00,
2013-02-08 06:23:00,38.0,36.4,29.91,NW,322,0.0,0.7,94,0.00,OVC,,0.01,WeatherDisplay:10.37,2013-02-08 11:23:00,
2013-02-08 06:25:00,37.9,36.3,29.91,NW,322,0.0,0.0,94,0.00,OVC,,0.01,WeatherDisplay:10.37,2013-02-08 11:25:00,
2013-02-08 06:26:00,37.9,36.3,29.91,NW,321,0.0,0.0,94,0.00,OVC,,0.01,WeatherDisplay:10.37,2013-02-08 11:26:00,
2013-02-08 06:28:00,37.8,36.2,29.91,NW,321,0.0,0.0,94,0.00,OVC,,0.01,WeatherDisplay:10.37,2013-02-08 11:28:00,
2013-02-08 06:29:00,37.8,36.2,29.91,NW,322,0.0,0.0,94,0.00,OVC,,0.01,WeatherDisplay:10.37,2013-02-08 11:29:00,
2013-02-08 06:30:00,37.8,36.2,29.91,NW,321,0.0,0.0,94,0.00,OVC,,0.01,WeatherDisplay:10.37,2013-02-08 11:30:00,
2013-02-08 06:31:00,37.7,36.1,29.91,NW,322,0.0,0.0,94,0.00,OVC,,0.01,WeatherDisplay:10.37,2013-02-08 11:31:00,
2013-02-08 06:33:00,37.7,36.1,29.91,NW,322,0.0,0.0,94,0.00,OVC,,0.01,WeatherDisplay:10.37,2013-02-08 11:33:00,
2013-02-08 06:34:00,37.7,36.1,29.91,NW,322,0.0,0.2,94,0.00,OVC,,0.01,WeatherDisplay:10.37,2013-02-08 11:34:00,
2013-02-08 06:35:00,37.7,36.4,29.91,NW,322,2.3,2.3,95,0.00,OVC,,0.01,WeatherDisplay:10.37,2013-02-08 11:35:00,
2013-02-08 06:36:00,37.7,36.4,29.91,NW,321,2.3,2.3,95,0.00,OVC,,0.01,WeatherDisplay:10.37,2013-02-08 11:36:00,
2013-02-08 06:38:00,37.7,36.4,29.91,NW,322,0.0,0.0,95,0.00,OVC,,0.01,WeatherDisplay:10.37,2013-02-08 11:38:00,
2013-02-08 06:39:00,37.8,36.5,29.91,NW,321,0.0,0.0,95,0.00,OVC,,0.01,WeatherDisplay:10.37,2013-02-08 11:39:00,
2013-02-08 06:40:00,37.8,36.5,29.91,NW,321,2.3,2.3,95,0.00,BKN,,0.01,WeatherDisplay:10.37,2013-02-08 11:40:00,
2013-02-08 06:41:00,37.8,36.5,29.91,NW,321,2.3,2.3,95,0.00,BKN,,0.01,WeatherDisplay:10.37,2013-02-08 11:41:00,
2013-02-08 06:44:00,37.8,36.5,29.91,NW,321,0.0,0.0,95,0.00,BKN,,0.01,WeatherDisplay:10.37,2013-02-08 11:44:00,
2013-02-08 06:45:00,37.7,36.4,29.91,NW,322,0.0,0.0,95,0.00,BKN,,0.01,WeatherDisplay:10.37,2013-02-08 11:45:00,
2013-02-08 06:46:00,37.7,36.4,29.91,NW,322,0.0,0.0,95,0.00,BKN,,0.01,WeatherDisplay:10.37,2013-02-08 11:46:00,
2013-02-08 06:49:00,37.7,36.4,29.91,NW,321,2.3,2.3,95,0.00,BKN,,0.01,WeatherDisplay:10.37,2013-02-08 11:49:00,
2013-02-08 06:50:00,37.7,36.4,29.91,NW,322,2.3,2.3,95,0.00,BKN,,0.01,WeatherDisplay:10.37,2013-02-08 11:50:00,
2013-02-08 06:51:00,37.7,36.4,29.91,NW,321,2.3,2.3,95,0.00,BKN,,0.01,WeatherDisplay:10.37,2013-02-08 11:51:00,
2013-02-08 06:54:00,37.8,36.5,29.91,NW,319,0.0,0.0,95,0.00,BKN,,0.01,WeatherDisplay:10.37,2013-02-08 11:54:00,
2013-02-08 06:55:00,37.8,36.5,29.91,NW,319,0.0,0.0,95,0.00,BKN,,0.01,WeatherDisplay:10.37,2013-02-08 11:55:00,
2013-02-08 06:56:00,37.8,36.5,29.91,NW,319,0.0,0.0,95,0.00,BKN,,0.01,WeatherDisplay:10.37,2013-02-08 11:56:00,
2013-02-08 07:00:00,37.8,36.5,29.90,NW,319,0.0,0.0,95,0.00,BKN,,0.01,WeatherDisplay:10.37,2013-02-08 12:00:00,
2013-02-08 07:01:00,37.7,36.4,29.90,NW,319,0.0,0.0,95,0.00,BKN,,0.01,WeatherDisplay:10.37,2013-02-08 12:01:00,
2013-02-08 07:02:00,37.7,36.4,29.90,NW,319,0.0,0.0,95,0.00,BKN,,0.01,WeatherDisplay:10.37,2013-02-08 12:02:00,
2013-02-08 07:05:00,37.5,36.2,29.91,NW,319,0.0,0.0,95,0.00,BKN,,0.01,WeatherDisplay:10.37,2013-02-08 12:05:00,
2013-02-08 07:06:00,37.5,36.2,29.91,NW,319,0.0,0.0,95,0.00,BKN,,0.01,WeatherDisplay:10.37,2013-02-08 12:06:00,
2013-02-08 07:07:00,37.4,35.8,29.91,NW,319,0.0,0.0,94,0.00,BKN,,0.01,WeatherDisplay:10.37,2013-02-08 12:07:00,
2013-02-08 07:10:00,37.4,36.1,29.91,NW,319,0.0,0.0,95,0.00,BKN,,0.01,WeatherDisplay:10.37,2013-02-08 12:10:00,
2013-02-08 07:11:00,37.4,36.1,29.91,NW,319,0.0,0.0,95,0.00,BKN,,0.01,WeatherDisplay:10.37,2013-02-08 12:11:00,
2013-02-08 07:12:00,37.4,36.1,29.91,NW,319,0.0,0.0,95,0.00,BKN,,0.01,WeatherDisplay:10.37,2013-02-08 12:12:00,
2013-02-08 07:15:00,37.3,36.0,29.90,NW,319,1.8,1.8,95,0.00,BKN,,0.01,WeatherDisplay:10.37,2013-02-08 12:15:00,
2013-02-08 07:16:00,37.3,36.0,29.90,NW,319,1.8,1.8,95,0.00,BKN,,0.01,WeatherDisplay:10.37,2013-02-08 12:16:00,
2013-02-08 07:17:00,37.4,36.1,29.90,NW,319,2.3,2.3,95,0.00,BKN,,0.01,WeatherDisplay:10.37,2013-02-08 12:17:00,
2013-02-08 07:21:00,37.4,36.1,29.90,NW,319,2.3,2.3,95,0.00,BKN,,0.01,WeatherDisplay:10.37,2013-02-08 12:21:00,
2013-02-08 07:22:00,37.5,36.2,29.90,NW,319,2.3,2.3,95,0.00,BKN,,0.01,WeatherDisplay:10.37,2013-02-08 12:22:00,
2013-02-08 07:23:00,37.5,36.2,29.90,NW,319,2.3,0.0,95,0.00,BKN,,0.01,WeatherDisplay:10.37,2013-02-08 12:23:00,
2013-02-08 07:26:00,37.5,36.2,29.90,NW,319,0.0,0.0,95,0.00,BKN,,0.01,WeatherDisplay:10.37,2013-02-08 12:26:00,
2013-02-08 07:27:00,37.4,36.1,29.90,NW,319,2.3,0.0,95,0.00,BKN,,0.01,WeatherDisplay:10.37,2013-02-08 12:27:00,
2013-02-08 07:28:00,37.4,36.1,29.90,NW,319,2.3,0.0,95,0.00,BKN,,0.01,WeatherDisplay:10.37,2013-02-08 12:28:00,
2013-02-08 07:31:00,37.3,36.0,29.90,NW,319,0.0,0.0,95,0.00,BKN,,0.01,WeatherDisplay:10.37,2013-02-08 12:31:00,
2013-02-08 07:32:00,37.3,36.0,29.90,NW,319,0.0,0.0,95,0.00,BKN,,0.01,WeatherDisplay:10.37,2013-02-08 12:32:00,
2013-02-08 07:33:00,37.3,36.0,29.90,NW,319,0.0,0.0,95,0.00,BKN,,0.01,WeatherDisplay:10.37,2013-02-08 12:33:00,
2013-02-08 07:36:00,37.2,35.9,29.91,NW,319,0.0,0.0,95,0.00,BKN,,0.01,WeatherDisplay:10.37,2013-02-08 12:36:00,
2013-02-08 07:37:00,37.2,35.9,29.91,NW,319,0.0,0.0,95,0.00,BKN,,0.01,WeatherDisplay:10.37,2013-02-08 12:37:00,
2013-02-08 07:38:00,37.2,35.9,29.91,NW,319,0.0,0.0,95,0.00,BKN,,0.01,WeatherDisplay:10.37,2013-02-08 12:38:00,
2013-02-08 07:42:00,37.0,35.7,29.91,NW,319,0.0,0.0,95,0.00,BKN,,0.01,WeatherDisplay:10.37,2013-02-08 12:42:00,
2013-02-08 07:43:00,37.0,35.7,29.92,NW,319,0.0,0.0,95,0.00,BKN,,0.01,WeatherDisplay:10.37,2013-02-08 12:43:00,
2013-02-08 07:47:00,37.0,35.7,29.92,NW,319,0.0,0.0,95,0.00,BKN,,0.01,WeatherDisplay:10.37,2013-02-08 12:47:00,
2013-02-08 07:48:00,37.0,35.7,29.92,NW,319,0.0,0.0,95,0.00,BKN,,0.01,WeatherDisplay:10.37,2013-02-08 12:48:00,
2013-02-08 07:49:00,37.1,35.8,29.92,NW,319,0.0,0.0,95,0.00,BKN,,0.01,WeatherDisplay:10.37,2013-02-08 12:49:00,
2013-02-08 07:52:00,37.2,35.9,29.92,NW,319,0.0,0.0,95,0.00,BKN,,0.01,WeatherDisplay:10.37,2013-02-08 12:52:00,
2013-02-08 07:53:00,37.2,35.9,29.92,NW,319,2.3,2.3,95,0.00,BKN,,0.01,WeatherDisplay:10.37,2013-02-08 12:53:00,
2013-02-08 07:54:00,37.2,36.2,29.92,NW,319,2.3,2.3,96,0.00,BKN,,0.01,WeatherDisplay:10.37,2013-02-08 12:54:00,
2013-02-08 07:57:00,37.2,35.9,29.92,NW,319,0.0,0.0,95,0.00,BKN,,0.01,WeatherDisplay:10.37,2013-02-08 12:57:00,
2013-02-08 07:58:00,37.2,35.9,29.92,NW,319,0.0,0.0,95,0.00,BKN,,0.01,WeatherDisplay:10.37,2013-02-08 12:58:00,
2013-02-08 07:59:00,37.2,35.9,29.92,NW,319,0.0,0.0,95,0.00,BKN,,0.01,WeatherDisplay:10.37,2013-02-08 12:59:00,
2013-02-08 08:02:00,37.1,35.8,29.92,East,92,2.3,2.3,95,0.00,BKN,,0.01,WeatherDisplay:10.37,2013-02-08 13:02:00,
2013-02-08 08:03:00,37.1,35.8,29.92,East,92,0.0,0.0,95,0.00,BKN,,0.01,WeatherDisplay:10.37,2013-02-08 13:03:00,
2013-02-08 08:04:00,37.1,35.8,29.92,East,92,0.0,0.0,95,0.00,BKN,,0.01,WeatherDisplay:10.37,2013-02-08 13:04:00,
2013-02-08 08:07:00,37.0,35.7,29.92,East,91,0.0,0.0,95,0.00,BKN,,0.01,WeatherDisplay:10.37,2013-02-08 13:07:00,
2013-02-08 08:09:00,37.0,35.7,29.92,East,91,0.0,0.0,95,0.00,BKN,,0.01,WeatherDisplay:10.37,2013-02-08 13:09:00,
2013-02-08 08:10:00,37.0,35.7,29.92,East,91,2.3,2.3,95,0.00,BKN,,0.01,WeatherDisplay:10.37,2013-02-08 13:10:00,
2013-02-08 08:13:00,37.1,35.8,29.92,East,91,0.0,0.0,95,0.00,BKN,,0.01,WeatherDisplay:10.37,2013-02-08 13:13:00,
2013-02-08 08:14:00,37.2,36.2,29.92,East,91,0.0,0.0,96,0.00,BKN,,0.01,WeatherDisplay:10.37,2013-02-08 13:14:00,
2013-02-08 08:15:00,37.2,36.2,29.92,East,92,0.0,0.0,96,0.00,BKN,,0.01,WeatherDisplay:10.37,2013-02-08 13:15:00,
2013-02-08 08:18:00,37.4,36.4,29.92,East,91,0.0,0.0,96,0.00,BKN,,0.01,WeatherDisplay:10.37,2013-02-08 13:18:00,
2013-02-08 08:19:00,37.4,36.4,29.92,East,91,0.0,0.0,96,0.00,BKN,,0.01,WeatherDisplay:10.37,2013-02-08 13:19:00,
2013-02-08 08:20:00,37.4,36.4,29.92,East,91,0.0,0.0,96,0.00,BKN,,0.01,WeatherDisplay:10.37,2013-02-08 13:20:00,
2013-02-08 08:23:00,37.7,36.7,29.93,East,91,0.0,0.0,96,0.00,BKN,,0.01,WeatherDisplay:10.37,2013-02-08 13:23:00,
2013-02-08 08:24:00,37.8,36.8,29.93,East,92,0.0,0.0,96,0.00,BKN,,0.01,WeatherDisplay:10.37,2013-02-08 13:24:00,
2013-02-08 08:25:00,37.8,36.8,29.92,East,91,0.0,0.0,96,0.00,BKN,,0.01,WeatherDisplay:10.37,2013-02-08 13:25:00,
2013-02-08 08:28:00,38.0,37.0,29.92,East,91,0.0,0.0,96,0.00,BKN,,0.01,WeatherDisplay:10.37,2013-02-08 13:28:00,
2013-02-08 08:30:00,38.1,37.1,29.92,East,92,0.0,0.0,96,0.00,BKN,,0.01,WeatherDisplay:10.37,2013-02-08 13:30:00,
2013-02-08 08:33:00,38.6,37.6,29.92,NNE,30,2.3,2.3,96,0.00,SCT,,0.01,WeatherDisplay:10.37,2013-02-08 13:33:00,
2013-02-08 08:35:00,38.8,37.8,29.92,North,353,3.5,3.5,96,0.00,SCT,,0.01,WeatherDisplay:10.37,2013-02-08 13:35:00,
2013-02-08 08:36:00,38.9,37.9,29.92,NW,319,1.8,1.8,96,0.00,SCT,,0.01,WeatherDisplay:10.37,2013-02-08 13:36:00,
2013-02-08 08:39:00,39.3,38.3,29.92,WNW,287,2.3,2.3,96,0.00,SCT,,0.01,WeatherDisplay:10.37,2013-02-08 13:39:00,
2013-02-08 08:40:00,39.5,38.5,29.92,NW,315,2.3,2.3,96,0.00,SCT,,0.01,WeatherDisplay:10.37,2013-02-08 13:40:00,
2013-02-08 08:41:00,39.6,38.6,29.92,NNW,335,2.3,2.3,96,0.00,SCT,,0.01,WeatherDisplay:10.37,2013-02-08 13:41:00,
2013-02-08 08:44:00,39.8,38.8,29.92,NE,41,5.8,5.8,96,0.00,SCT,,0.01,WeatherDisplay:10.37,2013-02-08 13:44:00,
2013-02-08 08:45:00,40.0,39.0,29.92,North,352,2.3,2.3,96,0.00,SCT,,0.01,WeatherDisplay:10.37,2013-02-08 13:45:00,
2013-02-08 08:46:00,40.1,39.1,29.92,North,353,2.3,2.3,96,0.00,SCT,,0.01,WeatherDisplay:10.37,2013-02-08 13:46:00,
2013-02-08 08:47:00,40.2,39.2,29.92,North,352,2.3,2.3,96,0.00,SCT,,0.01,WeatherDisplay:10.37,2013-02-08 13:47:00,
2013-02-08 08:49:00,40.5,39.2,29.92,NNW,344,2.3,2.6,95,0.00,SCT,,0.01,WeatherDisplay:10.37,2013-02-08 13:49:00,
2013-02-08 08:50:00,40.7,39.4,29.92,WNW,289,2.3,2.3,95,0.00,SCT,,0.01,WeatherDisplay:10.37,2013-02-08 13:50:00,
2013-02-08 08:52:00,40.8,39.2,29.92,NW,325,5.8,5.8,94,0.00,SCT,,0.01,WeatherDisplay:10.37,2013-02-08 13:52:00,
2013-02-08 08:54:00,41.0,39.1,29.92,NW,320,2.3,2.3,93,0.00,SCT,,0.01,WeatherDisplay:10.37,2013-02-08 13:54:00,
2013-02-08 08:56:00,41.2,39.1,29.92,NNW,331,5.8,5.8,92,0.00,SCT,,0.01,WeatherDisplay:10.37,2013-02-08 13:56:00,
2013-02-08 08:57:00,41.2,39.1,29.92,NNE,30,5.8,5.8,92,0.00,SCT,,0.01,WeatherDisplay:10.37,2013-02-08 13:57:00,
2013-02-08 08:59:00,41.4,39.3,29.92,ENE,61,3.5,3.5,92,0.00,SCT,,0.01,WeatherDisplay:10.37,2013-02-08 13:59:00,
2013-02-08 09:02:00,41.7,39.5,29.92,NNW,328,3.5,3.5,92,0.00,SCT,,0.01,WeatherDisplay:10.37,2013-02-08 14:02:00,
2013-02-08 09:04:00,41.9,39.5,29.93,NW,325,2.3,2.3,91,0.00,SCT,,0.01,WeatherDisplay:10.37,2013-02-08 14:04:00,
2013-02-08 09:07:00,42.1,39.7,29.93,NW,325,2.3,2.3,91,0.00,SCT,,0.01,WeatherDisplay:10.37,2013-02-08 14:07:00,
2013-02-08 09:09:00,42.3,39.6,29.93,North,359,3.5,3.5,90,0.00,SCT,,0.01,WeatherDisplay:10.37,2013-02-08 14:09:00,
2013-02-08 09:12:00,42.5,39.8,29.93,ENE,75,2.3,2.3,90,0.00,CLR,,0.01,WeatherDisplay:10.37,2013-02-08 14:12:00,
2013-02-08 09:13:00,42.6,39.9,29.93,East,90,3.5,3.5,90,0.00,CLR,,0.01,WeatherDisplay:10.37,2013-02-08 14:13:00,
2013-02-08 09:14:00,42.8,39.8,29.92,NNW,329,5.8,5.8,89,0.00,CLR,,0.01,WeatherDisplay:10.37,2013-02-08 14:14:00,
2013-02-08 09:17:00,43.0,39.7,29.92,WNW,302,3.5,3.5,88,0.00,CLR,,0.01,WeatherDisplay:10.37,2013-02-08 14:17:00,
2013-02-08 09:18:00,43.0,39.7,29.92,WNW,302,2.3,2.3,88,0.00,CLR,,0.01,WeatherDisplay:10.37,2013-02-08 14:18:00,
2013-02-08 09:20:00,43.2,40.2,29.92,East,94,3.5,3.5,89,0.00,CLR,,0.01,WeatherDisplay:10.37,2013-02-08 14:20:00,
2013-02-08 09:22:00,43.5,40.5,29.92,NW,316,7.0,7.0,89,0.00,CLR,,0.01,WeatherDisplay:10.37,2013-02-08 14:22:00,
2013-02-08 09:23:00,43.6,40.3,29.92,WNW,301,6.9,6.9,88,0.00,CLR,,0.01,WeatherDisplay:10.37,2013-02-08 14:23:00,
2013-02-08 09:25:00,43.9,41.2,29.93,East,93,2.3,2.3,90,0.00,CLR,,0.01,WeatherDisplay:10.37,2013-02-08 14:25:00,
2013-02-08 09:27:00,44.1,41.4,29.93,NNW,344,1.8,1.8,90,0.00,CLR,,0.01,WeatherDisplay:10.37,2013-02-08 14:27:00,
2013-02-08 09:28:00,44.1,41.4,29.93,NW,316,2.3,2.3,90,0.00,CLR,,0.01,WeatherDisplay:10.37,2013-02-08 14:28:00,
2013-02-08 09:29:00,44.2,41.5,29.93,NW,316,2.3,2.3,90,0.00,CLR,,0.01,WeatherDisplay:10.37,2013-02-08 14:29:00,
2013-02-08 09:30:00,44.3,41.3,29.93,NW,316,1.8,0.0,89,0.00,CLR,,0.01,WeatherDisplay:10.37,2013-02-08 14:30:00,
2013-02-08 09:32:00,44.3,41.0,29.93,WNW,302,2.3,2.3,88,0.00,CLR,,0.01,WeatherDisplay:10.37,2013-02-08 14:32:00,
2013-02-08 09:34:00,44.3,40.7,29.93,North,1,5.8,5.8,87,0.00,CLR,,0.01,WeatherDisplay:10.37,2013-02-08 14:34:00,
2013-02-08 09:35:00,44.3,41.0,29.93,NNW,338,3.5,3.5,88,0.00,CLR,,0.01,WeatherDisplay:10.37,2013-02-08 14:35:00,
2013-02-08 09:37:00,44.3,41.0,29.93,NNW,338,0.0,0.1,88,0.00,CLR,,0.01,WeatherDisplay:10.37,2013-02-08 14:37:00,
2013-02-08 09:39:00,44.3,40.7,29.93,NW,325,3.5,3.5,87,0.00,CLR,,0.01,WeatherDisplay:10.37,2013-02-08 14:39:00,
2013-02-08 09:41:00,44.3,41.0,29.94,NW,325,3.5,3.5,88,0.00,CLR,,0.01,WeatherDisplay:10.37,2013-02-08 14:41:00,
2013-02-08 09:43:00,44.3,40.4,29.94,WNW,291,3.5,3.5,86,0.00,CLR,,0.01,WeatherDisplay:10.37,2013-02-08 14:43:00,
2013-02-08 09:44:00,44.3,41.0,29.93,West,269,2.3,2.3,88,0.00,CLR,,0.01,WeatherDisplay:10.37,2013-02-08 14:44:00,
2013-02-08 09:45:00,44.3,41.0,29.93,ENE,75,2.3,2.3,88,0.00,CLR,,0.01,WeatherDisplay:10.37,2013-02-08 14:45:00,
2013-02-08 09:46:00,44.4,41.1,29.93,ENE,75,2.3,2.3,88,0.00,CLR,,0.01,WeatherDisplay:10.37,2013-02-08 14:46:00,
2013-02-08 09:48:00,44.4,40.5,29.92,ENE,75,1.8,1.8,86,0.00,CLR,,0.01,WeatherDisplay:10.37,2013-02-08 14:48:00,
2013-02-08 09:50:00,44.5,40.6,29.93,SSE,160,2.3,0.0,86,0.00,CLR,,0.01,WeatherDisplay:10.37,2013-02-08 14:50:00,
2013-02-08 09:51:00,44.6,41.0,29.93,SSE,162,0.0,0.0,87,0.00,CLR,,0.01,WeatherDisplay:10.37,2013-02-08 14:51:00,
2013-02-08 09:53:00,44.9,41.0,29.93,WSW,250,3.5,3.5,86,0.00,CLR,,0.01,WeatherDisplay:10.37,2013-02-08 14:53:00,
2013-02-08 09:55:00,44.9,40.7,29.93,WSW,246,7.0,7.0,85,0.00,CLR,,0.01,WeatherDisplay:10.37,2013-02-08 14:55:00,
2013-02-08 09:56:00,45.1,40.9,29.93,WSW,256,6.9,6.9,85,0.00,CLR,,0.01,WeatherDisplay:10.37,2013-02-08 14:56:00,
2013-02-08 09:59:00,45.3,41.0,29.93,West,273,1.0,7.0,85,0.00,CLR,,0.01,WeatherDisplay:10.37,2013-02-08 14:59:00,
2013-02-08 10:00:00,45.5,41.6,29.93,WNW,287,2.3,2.3,86,0.00,CLR,,0.01,WeatherDisplay:10.37,2013-02-08 15:00:00,
2013-02-08 10:01:00,45.5,41.3,29.93,NNW,338,3.5,3.5,85,0.00,CLR,,0.01,WeatherDisplay:10.37,2013-02-08 15:01:00,
2013-02-08 10:05:00,45.8,41.5,29.93,NW,309,3.5,3.5,85,0.00,CLR,,0.01,WeatherDisplay:10.37,2013-02-08 15:05:00,
2013-02-08 10:06:00,45.9,41.3,29.92,ESE,120,3.5,3.5,84,0.00,CLR,,0.01,WeatherDisplay:10.37,2013-02-08 15:06:00,
2013-02-08 10:10:00,46.1,41.5,29.92,NW,309,2.3,2.3,84,0.00,CLR,,0.01,WeatherDisplay:10.37,2013-02-08 15:10:00,
2013-02-08 10:11:00,46.1,41.2,29.92,NNW,335,3.5,3.5,83,0.00,FEW,,0.01,WeatherDisplay:10.37,2013-02-08 15:11:00,
2013-02-08 10:12:00,46.1,41.2,29.92,NNW,335,3.5,3.5,83,0.00,FEW,,0.01,WeatherDisplay:10.37,2013-02-08 15:12:00,
2013-02-08 10:15:00,46.2,41.0,29.93,WNW,301,3.5,3.5,82,0.00,FEW,,0.01,WeatherDisplay:10.37,2013-02-08 15:15:00,
2013-02-08 10:16:00,46.2,41.3,29.93,WNW,301,5.8,5.8,83,0.00,FEW,,0.01,WeatherDisplay:10.37,2013-02-08 15:16:00,
2013-02-08 10:17:00,46.2,41.0,29.92,WNW,301,3.5,0.0,82,0.00,FEW,,0.01,WeatherDisplay:10.37,2013-02-08 15:17:00,
2013-02-08 10:20:00,46.5,41.6,29.92,SSW,194,0.0,0.1,83,0.00,FEW,,0.01,WeatherDisplay:10.37,2013-02-08 15:20:00,
2013-02-08 10:21:00,46.5,41.6,29.92,SSW,194,0.0,0.1,83,0.00,FEW,,0.01,WeatherDisplay:10.37,2013-02-08 15:21:00,
2013-02-08 10:22:00,46.6,41.7,29.92,WSW,256,2.3,2.3,83,0.00,FEW,,0.01,WeatherDisplay:10.37,2013-02-08 15:22:00,
2013-02-08 10:25:00,46.8,41.6,29.92,WNW,288,2.3,2.3,82,0.00,FEW,,0.01,WeatherDisplay:10.37,2013-02-08 15:25:00,
2013-02-08 10:26:00,46.9,41.7,29.92,West,273,2.3,2.3,82,0.00,FEW,,0.01,WeatherDisplay:10.37,2013-02-08 15:26:00,
2013-02-08 10:27:00,46.9,41.7,29.92,SSW,197,2.3,2.3,82,0.00,FEW,,0.01,WeatherDisplay:10.37,2013-02-08 15:27:00,
2013-02-08 10:30:00,47.2,42.3,29.92,SSW,213,0.0,0.0,83,0.00,FEW,,0.01,WeatherDisplay:10.37,2013-02-08 15:30:00,
2013-02-08 10:32:00,47.3,42.1,29.92,SSW,208,0.0,0.0,82,0.00,FEW,,0.01,WeatherDisplay:10.37,2013-02-08 15:32:00,
2013-02-08 10:36:00,47.5,42.3,29.93,SW,221,3.5,3.5,82,0.00,FEW,,0.01,WeatherDisplay:10.37,2013-02-08 15:36:00,
2013-02-08 10:37:00,47.5,41.6,29.93,WSW,255,5.8,5.8,80,0.00,FEW,,0.01,WeatherDisplay:10.37,2013-02-08 15:37:00,
2013-02-08 10:41:00,47.5,42.0,29.92,NNW,330,5.8,5.8,81,0.00,FEW,,0.01,WeatherDisplay:10.37,2013-02-08 15:41:00,
2013-02-08 10:42:00,47.6,42.1,29.92,WNW,300,5.8,5.8,81,0.00,FEW,,0.01,WeatherDisplay:10.37,2013-02-08 15:42:00,
2013-02-08 10:43:00,47.7,42.5,29.93,SW,235,8.7,8.7,82,0.00,FEW,,0.01,WeatherDisplay:10.37,2013-02-08 15:43:00,
2013-02-08 10:46:00,47.9,42.0,29.93,SSW,205,3.5,3.5,80,0.00,FEW,,0.01,WeatherDisplay:10.37,2013-02-08 15:46:00,
2013-02-08 10:47:00,48.0,42.1,29.93,SSW,205,3.5,0.0,80,0.00,FEW,,0.01,WeatherDisplay:10.37,2013-02-08 15:47:00,
2013-02-08 10:48:00,48.1,42.5,29.93,West,273,1.8,1.8,81,0.00,FEW,,0.01,WeatherDisplay:10.37,2013-02-08 15:48:00,
2013-02-08 10:51:00,48.3,42.4,29.93,West,260,5.8,5.8,80,0.00,FEW,,0.01,WeatherDisplay:10.37,2013-02-08 15:51:00,
2013-02-08 10:52:00,48.4,42.5,29.93,WSW,243,5.8,5.8,80,0.00,FEW,,0.01,WeatherDisplay:10.37,2013-02-08 15:52:00,
2013-02-08 10:53:00,48.4,42.5,29.93,NW,305,2.3,2.3,80,0.00,FEW,,0.01,WeatherDisplay:10.37,2013-02-08 15:53:00,
2013-02-08 10:57:00,48.5,42.0,29.93,SW,235,3.5,3.5,78,0.00,FEW,,0.01,WeatherDisplay:10.37,2013-02-08 15:57:00,
2013-02-08 10:58:00,48.7,42.5,29.93,WSW,248,7.0,7.0,79,0.00,FEW,,0.01,WeatherDisplay:10.37,2013-02-08 15:58:00,
2013-02-08 11:02:00,49.0,42.1,29.93,West,262,10.4,10.4,77,0.00,BKN,,0.01,WeatherDisplay:10.37,2013-02-08 16:02:00,
2013-02-08 11:03:00,49.0,42.1,29.93,WSW,246,10.4,10.4,77,0.00,BKN,,0.01,WeatherDisplay:10.37,2013-02-08 16:03:00,
2013-02-08 11:07:00,49.5,42.6,29.93,SSW,212,5.8,5.8,77,0.00,BKN,,0.01,WeatherDisplay:10.37,2013-02-08 16:07:00,
2013-02-08 11:08:00,49.5,42.6,29.93,South,180,5.8,5.8,77,0.00,BKN,,0.01,WeatherDisplay:10.37,2013-02-08 16:08:00,
2013-02-08 11:09:00,49.6,43.0,29.93,West,278,3.5,3.5,78,0.00,BKN,,0.01,WeatherDisplay:10.37,2013-02-08 16:09:00,
2013-02-08 11:12:00,49.7,42.4,29.92,SSE,163,6.9,6.9,76,0.00,BKN,,0.01,WeatherDisplay:10.37,2013-02-08 16:12:00,
2013-02-08 11:13:00,49.7,42.4,29.92,SSW,193,6.9,6.9,76,0.00,BKN,,0.01,WeatherDisplay:10.37,2013-02-08 16:13:00,
2013-02-08 11:14:00,49.7,42.8,29.92,NW,307,5.3,5.3,77,0.00,BKN,,0.01,WeatherDisplay:10.37,2013-02-08 16:14:00,
2013-02-08 11:17:00,49.7,42.4,29.92,SSE,164,5.3,5.3,76,0.00,BKN,,0.01,WeatherDisplay:10.37,2013-02-08 16:17:00,
2013-02-08 11:18:00,49.7,42.8,29.92,SSE,150,5.3,5.3,77,0.00,BKN,,0.01,WeatherDisplay:10.37,2013-02-08 16:18:00,
2013-02-08 11:19:00,49.8,42.5,29.92,SSE,167,6.9,6.9,76,0.00,BKN,,0.01,WeatherDisplay:10.37,2013-02-08 16:19:00,
2013-02-08 11:22:00,49.9,43.6,29.92,NNW,338,2.3,2.3,79,0.00,BKN,,0.01,WeatherDisplay:10.37,2013-02-08 16:22:00,
2013-02-08 11:23:00,50.0,43.4,29.92,WNW,291,2.3,2.3,78,0.00,BKN,,0.01,WeatherDisplay:10.37,2013-02-08 16:23:00,
2013-02-08 11:24:00,50.0,43.4,29.92,WSW,255,3.5,3.5,78,0.00,BKN,,0.01,WeatherDisplay:10.37,2013-02-08 16:24:00,
2013-02-08 11:28:00,50.4,43.1,29.92,WSW,256,5.3,5.3,76,0.00,BKN,,0.01,WeatherDisplay:10.37,2013-02-08 16:28:00,
2013-02-08 11:29:00,50.5,43.2,29.92,SSW,205,5.0,7.0,76,0.00,BKN,,0.01,WeatherDisplay:10.37,2013-02-08 16:29:00,
2013-02-08 11:30:00,50.6,43.3,29.92,SSE,163,5.8,5.8,76,0.00,BKN,,0.01,WeatherDisplay:10.37,2013-02-08 16:30:00,
2013-02-08 11:33:00,51.1,44.1,29.91,NE,36,2.3,2.3,77,0.00,BKN,,0.01,WeatherDisplay:10.37,2013-02-08 16:33:00,
2013-02-08 11:34:00,51.4,44.4,29.91,SSW,205,2.3,2.3,77,0.00,BKN,,0.01,WeatherDisplay:10.37,2013-02-08 16:34:00,
2013-02-08 11:35:00,51.6,43.9,29.91,South,188,3.5,3.8,75,0.00,BKN,,0.01,WeatherDisplay:10.37,2013-02-08 16:35:00,
2013-02-08 11:38:00,52.4,44.7,29.91,SE,141,2.3,2.3,75,0.00,BKN,,0.01,WeatherDisplay:10.37,2013-02-08 16:38:00,
2013-02-08 11:39:00,52.6,44.2,29.91,WSW,250,3.5,3.5,73,0.00,BKN,,0.01,WeatherDisplay:10.37,2013-02-08 16:39:00,
2013-02-08 11:41:00,52.7,44.3,29.91,WSW,243,6.9,6.9,73,0.00,BKN,,0.01,WeatherDisplay:10.37,2013-02-08 16:41:00,
2013-02-08 11:43:00,52.9,44.5,29.91,NW,307,3.5,3.5,73,0.00,BKN,,0.01,WeatherDisplay:10.37,2013-02-08 16:43:00,
2013-02-08 11:44:00,52.9,44.1,29.91,NNW,329,5.8,5.8,72,0.00,BKN,,0.01,WeatherDisplay:10.37,2013-02-08 16:44:00,
2013-02-08 11:46:00,53.1,44.7,29.91,NW,305,2.3,2.3,73,0.00,BKN,,0.01,WeatherDisplay:10.37,2013-02-08 16:46:00,
2013-02-08 11:49:00,53.3,44.5,29.90,ESE,120,3.5,3.5,72,0.00,BKN,,0.01,WeatherDisplay:10.37,2013-02-08 16:49:00,
2013-02-08 11:51:00,53.6,45.2,29.90,SW,225,3.5,3.5,73,0.00,BKN,,0.01,WeatherDisplay:10.37,2013-02-08 16:51:00,
2013-02-08 11:54:00,53.8,45.0,29.91,WSW,251,3.5,3.5,72,0.00,BKN,,0.01,WeatherDisplay:10.37,2013-02-08 16:54:00,
2013-02-08 11:55:00,53.8,44.6,29.91,NW,316,5.8,5.8,71,0.00,BKN,,0.01,WeatherDisplay:10.37,2013-02-08 16:55:00,
2013-02-08 11:56:00,53.7,44.9,29.90,NW,305,5.8,5.8,72,0.00,BKN,,0.01,WeatherDisplay:10.37,2013-02-08 16:56:00,
2013-02-08 12:00:00,53.4,45.0,29.90,West,263,6.9,6.9,73,0.00,BKN,,0.01,WeatherDisplay:10.37,2013-02-08 17:00:00,
2013-02-08 12:02:00,53.4,44.6,29.90,SW,215,5.8,5.8,72,0.00,OVC,,0.01,WeatherDisplay:10.37,2013-02-08 17:02:00,
2013-02-08 12:05:00,53.7,44.9,29.90,NNW,329,6.9,6.9,72,0.00,OVC,,0.01,WeatherDisplay:10.37,2013-02-08 17:05:00,
2013-02-08 12:07:00,53.9,45.8,29.90,WNW,291,3.5,3.5,74,0.00,OVC,,0.01,WeatherDisplay:10.37,2013-02-08 17:07:00,
2013-02-08 12:10:00,54.0,45.2,29.90,WNW,302,5.8,5.8,72,0.00,OVC,,0.01,WeatherDisplay:10.37,2013-02-08 17:10:00,
2013-02-08 12:12:00,53.9,45.4,29.90,SSW,208,3.5,3.6,73,0.00,OVC,,0.01,WeatherDisplay:10.37,2013-02-08 17:12:00,
2013-02-08 12:15:00,53.9,44.7,29.90,WSW,249,17.5,17.5,71,0.00,OVC,,0.01,WeatherDisplay:10.37,2013-02-08 17:15:00,
2013-02-08 12:16:00,53.8,43.9,29.90,South,184,17.3,17.3,69,0.00,OVC,,0.01,WeatherDisplay:10.37,2013-02-08 17:16:00,
2013-02-08 12:17:00,53.7,44.1,29.90,WSW,246,10.4,10.4,70,0.00,OVC,,0.01,WeatherDisplay:10.37,2013-02-08 17:17:00,
2013-02-08 12:20:00,53.5,44.7,29.90,WNW,283,3.5,3.5,72,0.00,OVC,,0.01,WeatherDisplay:10.37,2013-02-08 17:20:00,
2013-02-08 12:21:00,53.5,44.7,29.90,South,172,3.5,3.5,72,0.00,OVC,,0.01,WeatherDisplay:10.37,2013-02-08 17:21:00,
2013-02-08 12:22:00,53.6,44.4,29.90,WSW,255,9.2,9.2,71,0.00,OVC,,0.01,WeatherDisplay:10.37,2013-02-08 17:22:00,
2013-02-08 12:25:00,53.4,44.2,29.90,WSW,256,12.7,12.7,71,0.00,OVC,,0.01,WeatherDisplay:10.37,2013-02-08 17:25:00,
2013-02-08 12:26:00,53.4,44.2,29.90,SW,226,12.7,12.7,71,0.00,OVC,,0.01,WeatherDisplay:10.37,2013-02-08 17:26:00,
2013-02-08 12:27:00,53.3,44.1,29.90,West,268,12.7,12.7,71,0.00,OVC,,0.01,WeatherDisplay:10.37,2013-02-08 17:27:00,
2013-02-08 12:31:00,53.2,44.8,29.89,SSW,208,3.5,3.5,73,0.00,OVC,,0.01,WeatherDisplay:10.37,2013-02-08 17:31:00,
2013-02-08 12:32:00,53.2,44.4,29.89,SSW,204,6.9,6.9,72,0.00,OVC,,0.01,WeatherDisplay:10.37,2013-02-08 17:32:00,
2013-02-08 12:36:00,53.4,45.3,29.89,WNW,283,3.5,3.5,74,0.00,OVC,,0.01,WeatherDisplay:10.37,2013-02-08 17:36:00,
2013-02-08 12:37:00,53.4,45.0,29.89,WSW,245,5.3,5.3,73,0.00,OVC,,0.01,WeatherDisplay:10.37,2013-02-08 17:37:00,
2013-02-08 12:38:00,53.5,44.7,29.89,North,352,6.9,6.9,72,0.00,OVC,,0.01,WeatherDisplay:10.37,2013-02-08 17:38:00,
2013-02-08 12:41:00,53.5,44.7,29.89,WSW,258,5.8,5.8,72,0.00,OVC,,0.01,WeatherDisplay:10.37,2013-02-08 17:41:00,
2013-02-08 12:42:00,53.5,44.3,29.89,WSW,255,6.9,6.9,71,0.00,OVC,,0.01,WeatherDisplay:10.37,2013-02-08 17:42:00,
2013-02-08 12:43:00,53.6,44.8,29.89,West,273,5.8,5.8,72,0.00,OVC,,0.01,WeatherDisplay:10.37,2013-02-08 17:43:00,
2013-02-08 12:46:00,53.6,44.4,29.89,WNW,285,12.7,12.7,71,0.00,OVC,,0.01,WeatherDisplay:10.37,2013-02-08 17:46:00,
2013-02-08 12:47:00,53.7,44.5,29.89,SW,218,6.9,6.9,71,0.00,OVC,,0.01,WeatherDisplay:10.37,2013-02-08 17:47:00,
2013-02-08 12:49:00,53.8,45.0,29.89,SE,141,7.0,7.0,72,0.00,OVC,,0.01,WeatherDisplay:10.37,2013-02-08 17:49:00,
2013-02-08 12:52:00,54.6,46.1,29.89,WSW,238,10.5,10.5,73,0.00,OVC,,0.01,WeatherDisplay:10.37,2013-02-08 17:52:00,
2013-02-08 12:54:00,55.2,46.0,29.89,WSW,245,5.8,5.8,71,0.00,OVC,,0.01,WeatherDisplay:10.37,2013-02-08 17:54:00,
2013-02-08 12:57:00,55.8,46.5,29.89,SW,231,3.5,3.5,71,0.00,OVC,,0.01,WeatherDisplay:10.37,2013-02-08 17:57:00,
2013-02-08 12:59:00,56.0,46.0,29.89,WSW,240,2.0,13.0,69,0.00,OVC,,0.01,WeatherDisplay:10.37,2013-02-08 17:59:00,
2013-02-08 13:02:00,56.3,46.3,29.89,SW,228,6.9,6.9,69,0.00,OVC,,0.01,WeatherDisplay:10.37,2013-02-08 18:02:00,
2013-02-08 13:03:00,56.3,45.5,29.89,West,260,6.9,6.9,67,0.00,OVC,,0.01,WeatherDisplay:10.37,2013-02-08 18:03:00,
2013-02-08 13:04:00,56.1,45.7,29.88,SSE,158,10.4,10.4,68,0.00,OVC,,0.01,WeatherDisplay:10.37,2013-02-08 18:04:00,
2013-02-08 13:07:00,56.1,45.7,29.88,SW,226,8.7,8.7,68,0.00,OVC,,0.01,WeatherDisplay:10.37,2013-02-08 18:07:00,
2013-02-08 13:08:00,56.1,45.7,29.88,WSW,255,12.7,12.7,68,0.00,OVC,,0.01,WeatherDisplay:10.37,2013-02-08 18:08:00,
2013-02-08 13:10:00,56.0,45.6,29.88,WSW,246,12.7,12.7,68,0.00,OVC,,0.01,WeatherDisplay:10.37,2013-02-08 18:10:00,
2013-02-08 13:12:00,56.1,46.1,29.88,ENE,77,10.4,10.4,69,0.00,BKN,,0.01,WeatherDisplay:10.37,2013-02-08 18:12:00,
2013-02-08 13:13:00,56.1,46.1,29.88,NE,34,10.4,10.4,69,0.00,BKN,,0.01,WeatherDisplay:10.37,2013-02-08 18:13:00,
2013-02-08 13:15:00,56.1,46.1,29.88,WSW,248,10.4,10.4,69,0.00,BKN,,0.01,WeatherDisplay:10.37,2013-02-08 18:15:00,
2013-02-08 13:17:00,56.1,46.4,29.88,SSW,212,5.8,5.8,70,0.00,BKN,,0.01,WeatherDisplay:10.37,2013-02-08 18:17:00,
2013-02-08 13:18:00,56.1,46.4,29.88,SW,215,5.8,5.8,70,0.00,BKN,,0.01,WeatherDisplay:10.37,2013-02-08 18:18:00,
2013-02-08 13:19:00,56.2,46.2,29.88,WSW,251,5.8,5.8,69,0.00,BKN,,0.01,WeatherDisplay:10.37,2013-02-08 18:19:00,
2013-02-08 13:21:00,56.2,45.8,29.88,West,269,12.7,12.7,68,0.00,BKN,,0.01,WeatherDisplay:10.37,2013-02-08 18:21:00,
2013-02-08 13:23:00,56.3,46.3,29.88,NW,312,12.3,12.3,69,0.00,BKN,,0.01,WeatherDisplay:10.37,2013-02-08 18:23:00,
2013-02-08 13:24:00,56.3,46.3,29.88,WNW,298,12.7,12.7,69,0.00,BKN,,0.01,WeatherDisplay:10.37,2013-02-08 18:24:00,
2013-02-08 13:26:00,56.6,46.9,29.88,SSW,211,10.4,10.4,70,0.00,BKN,,0.01,WeatherDisplay:10.37,2013-02-08 18:26:00,
2013-02-08 13:29:00,56.8,46.7,29.87,NNW,336,12.7,12.7,69,0.00,BKN,,0.01,WeatherDisplay:10.37,2013-02-08 18:29:00,
2013-02-08 13:31:00,56.9,46.1,29.87,SSW,197,12.7,12.7,67,0.00,BKN,,0.01,WeatherDisplay:10.37,2013-02-08 18:31:00,
2013-02-08 13:34:00,56.8,46.7,29.87,South,177,10.4,10.4,69,0.00,BKN,,0.01,WeatherDisplay:10.37,2013-02-08 18:34:00,
2013-02-08 13:37:00,57.0,46.5,29.87,SSW,205,5.8,5.8,68,0.00,BKN,,0.01,WeatherDisplay:10.37,2013-02-08 18:37:00,
2013-02-08 13:39:00,57.1,46.6,29.87,WSW,248,9.2,9.2,68,0.00,BKN,,0.01,WeatherDisplay:10.37,2013-02-08 18:39:00,
2013-02-08 13:40:00,57.1,46.6,29.87,West,262,9.2,9.2,68,0.00,BKN,,0.01,WeatherDisplay:10.37,2013-02-08 18:40:00,
2013-02-08 13:41:00,57.1,46.6,29.87,West,262,9.2,9.2,68,0.00,BKN,,0.01,WeatherDisplay:10.37,2013-02-08 18:41:00,
2013-02-08 13:42:00,57.2,47.1,29.87,SW,215,5.8,5.8,69,0.00,BKN,,0.01,WeatherDisplay:10.37,2013-02-08 18:42:00,
2013-02-08 13:45:00,57.4,47.7,29.86,SW,233,5.3,5.3,70,0.00,BKN,,0.01,WeatherDisplay:10.37,2013-02-08 18:45:00,
2013-02-08 13:46:00,57.5,47.0,29.86,WNW,285,6.9,6.9,68,0.00,BKN,,0.01,WeatherDisplay:10.37,2013-02-08 18:46:00,
2013-02-08 13:47:00,57.6,47.5,29.86,West,281,5.8,5.8,69,0.00,BKN,,0.01,WeatherDisplay:10.37,2013-02-08 18:47:00,
2013-02-08 13:50:00,58.0,47.9,29.86,SW,224,3.5,3.5,69,0.00,BKN,,0.01,WeatherDisplay:10.37,2013-02-08 18:50:00,
2013-02-08 13:51:00,58.3,47.4,29.86,South,170,7.0,7.0,67,0.00,BKN,,0.01,WeatherDisplay:10.37,2013-02-08 18:51:00,
2013-02-08 13:52:00,58.4,47.5,29.86,South,186,10.4,10.4,67,0.00,BKN,,0.01,WeatherDisplay:10.37,2013-02-08 18:52:00,
2013-02-08 13:55:00,59.0,47.2,29.86,NW,319,16.1,16.1,65,0.00,BKN,,0.01,WeatherDisplay:10.37,2013-02-08 18:55:00,
2013-02-08 13:56:00,59.0,47.7,29.86,NW,316,16.1,16.1,66,0.00,BKN,,0.01,WeatherDisplay:10.37,2013-02-08 18:56:00,
2013-02-08 13:57:00,59.1,48.1,29.86,SW,222,8.7,8.7,67,0.00,BKN,,0.01,WeatherDisplay:10.37,2013-02-08 18:57:00,
2013-02-08 14:00:00,59.4,47.6,29.86,WNW,290,9.2,9.2,65,0.00,BKN,,0.01,WeatherDisplay:10.37,2013-02-08 19:00:00,
2013-02-08 14:01:00,59.4,48.0,29.86,SSW,200,9.2,9.2,66,0.00,BKN,,0.01,WeatherDisplay:10.37,2013-02-08 19:01:00,
2013-02-08 14:02:00,59.5,47.7,29.87,SW,231,5.8,5.8,65,0.00,BKN,,0.01,WeatherDisplay:10.37,2013-02-08 19:02:00,
2013-02-08 14:03:00,59.6,47.8,29.86,NW,318,6.9,6.9,65,0.00,BKN,,0.01,WeatherDisplay:10.37,2013-02-08 19:03:00,
2013-02-08 14:06:00,59.7,47.1,29.86,SW,224,2.3,2.3,63,0.00,BKN,,0.01,WeatherDisplay:10.37,2013-02-08 19:06:00,
2013-02-08 14:07:00,59.7,47.5,29.86,WSW,246,6.9,6.9,64,0.00,BKN,,0.01,WeatherDisplay:10.37,2013-02-08 19:07:00,
2013-02-08 14:08:00,59.7,47.1,29.86,SW,226,6.9,6.9,63,0.00,BKN,,0.01,WeatherDisplay:10.37,2013-02-08 19:08:00,
2013-02-08 14:11:00,59.6,47.8,29.87,WNW,285,9.2,9.2,65,0.00,BKN,,0.01,WeatherDisplay:10.37,2013-02-08 19:11:00,
2013-02-08 14:12:00,59.6,47.8,29.86,WNW,283,5.8,5.8,65,0.00,BKN,,0.01,WeatherDisplay:10.37,2013-02-08 19:12:00,
2013-02-08 14:13:00,59.6,47.4,29.86,WSW,241,3.5,3.5,64,0.00,BKN,,0.01,WeatherDisplay:10.37,2013-02-08 19:13:00,
2013-02-08 14:16:00,59.4,47.2,29.86,SE,128,3.5,3.6,64,0.00,BKN,,0.01,WeatherDisplay:10.37,2013-02-08 19:16:00,
2013-02-08 14:17:00,59.3,47.1,29.86,West,273,5.8,5.8,64,0.00,BKN,,0.01,WeatherDisplay:10.37,2013-02-08 19:17:00,
2013-02-08 14:18:00,59.3,47.5,29.86,WNW,285,3.5,3.5,65,0.00,BKN,,0.01,WeatherDisplay:10.37,2013-02-08 19:18:00,
2013-02-08 14:21:00,59.2,47.0,29.86,NW,309,9.2,9.2,64,0.00,BKN,,0.01,WeatherDisplay:10.37,2013-02-08 19:21:00,
2013-02-08 14:22:00,59.2,47.0,29.87,South,184,9.2,9.2,64,0.00,BKN,,0.01,WeatherDisplay:10.37,2013-02-08 19:22:00,
2013-02-08 14:23:00,59.1,46.9,29.86,WNW,284,6.9,6.9,64,0.00,BKN,,0.01,WeatherDisplay:10.37,2013-02-08 19:23:00,
2013-02-08 14:26:00,58.8,46.6,29.86,WNW,295,5.8,5.8,64,0.00,BKN,,0.01,WeatherDisplay:10.37,2013-02-08 19:26:00,
2013-02-08 14:27:00,58.8,47.5,29.86,West,276,5.8,5.8,66,0.00,BKN,,0.01,WeatherDisplay:10.37,2013-02-08 19:27:00,
2013-02-08 14:28:00,58.7,47.0,29.86,WNW,301,3.5,3.5,65,0.00,BKN,,0.01,WeatherDisplay:10.37,2013-02-08 19:28:00,
2013-02-08 14:29:00,58.7,47.0,29.86,WNW,290,3.5,3.5,65,0.00,BKN,,0.01,WeatherDisplay:10.37,2013-02-08 19:29:00,
2013-02-08 14:31:00,58.7,46.5,29.86,NW,321,6.9,6.9,64,0.00,BKN,,0.01,WeatherDisplay:10.37,2013-02-08 19:31:00,
2013-02-08 14:32:00,58.7,47.0,29.86,WNW,284,8.7,8.7,65,0.00,BKN,,0.01,WeatherDisplay:10.37,2013-02-08 19:32:00,
2013-02-08 14:34:00,58.6,46.5,29.86,South,191,9.2,9.2,64,0.00,BKN,,0.01,WeatherDisplay:10.37,2013-02-08 19:34:00,
2013-02-08 14:36:00,58.6,47.3,29.86,WNW,291,5.8,5.8,66,0.00,BKN,,0.01,WeatherDisplay:10.37,2013-02-08 19:36:00,
2013-02-08 14:38:00,58.5,46.8,29.86,West,280,5.8,5.8,65,0.00,BKN,,0.01,WeatherDisplay:10.37,2013-02-08 19:38:00,
2013-02-08 14:39:00,58.5,47.2,29.86,SW,232,3.5,3.5,66,0.00,BKN,,0.01,WeatherDisplay:10.37,2013-02-08 19:39:00,
2013-02-08 14:41:00,58.5,46.8,29.86,SW,235,7.0,7.0,65,0.00,BKN,,0.01,WeatherDisplay:10.37,2013-02-08 19:41:00,
2013-02-08 14:43:00,58.4,46.7,29.86,WNW,294,6.9,6.9,65,0.00,BKN,,0.01,WeatherDisplay:10.37,2013-02-08 19:43:00,
2013-02-08 14:44:00,58.4,47.1,29.86,WNW,290,9.2,9.2,66,0.00,BKN,,0.01,WeatherDisplay:10.37,2013-02-08 19:44:00,
2013-02-08 14:47:00,58.4,47.1,29.86,NW,321,9.2,9.2,66,0.00,BKN,,0.01,WeatherDisplay:10.37,2013-02-08 19:47:00,
2013-02-08 14:48:00,58.4,46.3,29.86,SW,233,7.0,7.0,64,0.00,BKN,,0.01,WeatherDisplay:10.37,2013-02-08 19:48:00,
2013-02-08 14:49:00,58.4,45.8,29.86,NW,316,9.2,9.2,63,0.00,BKN,,0.01,WeatherDisplay:10.37,2013-02-08 19:49:00,
2013-02-08 14:52:00,58.4,46.3,29.86,NE,34,6.9,6.9,64,0.00,BKN,,0.01,WeatherDisplay:10.37,2013-02-08 19:52:00,
2013-02-08 14:53:00,58.3,46.6,29.86,NW,314,10.5,10.5,65,0.00,BKN,,0.01,WeatherDisplay:10.37,2013-02-08 19:53:00,
2013-02-08 14:55:00,58.3,45.8,29.86,NNW,335,13.8,13.8,63,0.00,BKN,,0.01,WeatherDisplay:10.37,2013-02-08 19:55:00,
2013-02-08 14:57:00,58.2,45.7,29.86,SW,233,9.2,9.2,63,0.00,BKN,,0.01,WeatherDisplay:10.37,2013-02-08 19:57:00,
2013-02-08 14:58:00,58.2,45.2,29.86,West,262,6.9,6.9,62,0.00,BKN,,0.01,WeatherDisplay:10.37,2013-02-08 19:58:00,
2013-02-08 15:00:00,58.2,45.7,29.86,West,273,7.0,7.0,63,0.00,BKN,,0.01,WeatherDisplay:10.37,2013-02-08 20:00:00,
2013-02-08 15:03:00,58.0,44.6,29.85,NW,313,13.8,13.8,61,0.00,OVC,,0.01,WeatherDisplay:10.37,2013-02-08 20:03:00,
2013-02-08 15:04:00,58.0,44.6,29.86,West,271,6.9,6.9,61,0.00,OVC,,0.01,WeatherDisplay:10.37,2013-02-08 20:04:00,
2013-02-08 15:05:00,58.0,44.6,29.86,WNW,293,5.8,5.8,61,0.00,OVC,,0.01,WeatherDisplay:10.37,2013-02-08 20:05:00,
2013-02-08 15:06:00,58.0,44.2,29.86,WNW,291,6.9,6.9,60,0.00,OVC,,0.01,WeatherDisplay:10.37,2013-02-08 20:06:00,
2013-02-08 15:08:00,57.8,43.6,29.86,NW,309,10.5,10.5,59,0.00,OVC,,0.01,WeatherDisplay:10.37,2013-02-08 20:08:00,
2013-02-08 15:09:00,57.8,43.6,29.86,NW,309,9.2,9.2,59,0.00,OVC,,0.01,WeatherDisplay:10.37,2013-02-08 20:09:00,
2013-02-08 15:10:00,57.8,43.6,29.86,West,278,10.4,10.4,59,0.00,OVC,,0.01,WeatherDisplay:10.37,2013-02-08 20:10:00,
2013-02-08 15:11:00,57.7,43.5,29.86,WSW,256,10.4,10.4,59,0.00,OVC,,0.01,WeatherDisplay:10.37,2013-02-08 20:11:00,
2013-02-08 15:13:00,57.7,43.9,29.86,WSW,250,5.3,5.3,60,0.00,OVC,,0.01,WeatherDisplay:10.37,2013-02-08 20:13:00,
2013-02-08 15:14:00,57.7,43.9,29.86,NNE,18,7.0,7.0,60,0.00,OVC,,0.01,WeatherDisplay:10.37,2013-02-08 20:14:00,
2013-02-08 15:15:00,57.8,43.6,29.86,SW,232,9.2,9.2,59,0.00,OVC,,0.01,WeatherDisplay:10.37,2013-02-08 20:15:00,
2013-02-08 15:16:00,57.8,43.6,29.86,NNW,335,7.0,7.0,59,0.00,OVC,,0.01,WeatherDisplay:10.37,2013-02-08 20:16:00,
2013-02-08 15:19:00,58.0,44.2,29.86,WNW,284,3.5,3.5,60,0.00,OVC,,0.01,WeatherDisplay:10.37,2013-02-08 20:19:00,
2013-02-08 15:20:00,58.0,43.7,29.86,West,271,8.7,8.7,59,0.00,OVC,,0.01,WeatherDisplay:10.37,2013-02-08 20:20:00,
2013-02-08 15:21:00,58.1,43.8,29.86,NW,308,6.9,6.9,59,0.00,OVC,,0.01,WeatherDisplay:10.37,2013-02-08 20:21:00,
2013-02-08 15:24:00,58.1,44.3,29.86,NNW,327,3.5,3.5,60,0.00,OVC,,0.01,WeatherDisplay:10.37,2013-02-08 20:24:00,
2013-02-08 15:25:00,58.2,44.8,29.86,West,278,2.3,2.3,61,0.00,OVC,,0.01,WeatherDisplay:10.37,2013-02-08 20:25:00,
2013-02-08 15:27:00,58.3,44.5,29.86,SW,226,2.3,2.3,60,0.00,OVC,,0.01,WeatherDisplay:10.37,2013-02-08 20:27:00,
2013-02-08 15:29:00,58.3,43.1,29.86,WNW,285,5.8,5.8,57,0.00,OVC,,0.01,WeatherDisplay:10.37,2013-02-08 20:29:00,
2013-02-08 15:30:00,58.3,44.0,29.86,West,267,5.8,5.8,59,0.00,OVC,,0.01,WeatherDisplay:10.37,2013-02-08 20:30:00,
2013-02-08 15:33:00,58.2,43.5,29.87,NNW,342,5.8,5.8,58,0.00,OVC,,0.01,WeatherDisplay:10.37,2013-02-08 20:33:00,
2013-02-08 15:34:00,58.1,42.9,29.87,West,266,5.8,5.8,57,0.00,OVC,,0.01,WeatherDisplay:10.37,2013-02-08 20:34:00,
2013-02-08 15:36:00,58.0,41.4,29.87,WSW,242,10.4,10.4,54,0.00,OVC,,0.01,WeatherDisplay:10.37,2013-02-08 20:36:00,
2013-02-08 15:38:00,57.8,41.3,29.87,NW,316,6.9,6.9,54,0.00,OVC,,0.01,WeatherDisplay:10.37,2013-02-08 20:38:00,
2013-02-08 15:39:00,57.8,42.7,29.87,SW,236,3.5,3.5,57,0.00,OVC,,0.01,WeatherDisplay:10.37,2013-02-08 20:39:00,
2013-02-08 15:40:00,57.7,42.6,29.87,SW,215,10.5,10.5,57,0.00,OVC,,0.01,WeatherDisplay:10.37,2013-02-08 20:40:00,
2013-02-08 15:41:00,57.7,42.6,29.87,NW,319,10.4,10.4,57,0.00,OVC,,0.01,WeatherDisplay:10.37,2013-02-08 20:41:00,
2013-02-08 15:43:00,57.5,39.5,29.87,NW,319,12.7,12.7,51,0.00,OVC,,0.01,WeatherDisplay:10.37,2013-02-08 20:43:00,
2013-02-08 15:45:00,57.4,37.9,29.87,SE,139,10.4,10.4,48,0.00,OVC,,0.01,WeatherDisplay:10.37,2013-02-08 20:45:00,
2013-02-08 15:46:00,57.4,36.8,29.87,NW,316,9.2,9.2,46,0.00,OVC,,0.01,WeatherDisplay:10.37,2013-02-08 20:46:00,
2013-02-08 15:49:00,57.2,36.6,29.87,SW,233,5.8,5.8,46,0.00,OVC,,0.01,WeatherDisplay:10.37,2013-02-08 20:49:00,
2013-02-08 15:50:00,57.1,36.5,29.87,NW,325,9.2,9.2,46,0.00,OVC,,0.01,WeatherDisplay:10.37,2013-02-08 20:50:00,
2013-02-08 15:51:00,57.1,38.1,29.87,West,271,9.2,9.2,49,0.00,OVC,,0.01,WeatherDisplay:10.37,2013-02-08 20:51:00,
2013-02-08 15:54:00,57.0,35.3,29.87,WNW,294,17.3,17.3,44,0.00,OVC,,0.01,WeatherDisplay:10.37,2013-02-08 20:54:00,
2013-02-08 15:55:00,57.0,35.9,29.88,NW,318,3.5,3.5,45,0.00,OVC,,0.01,WeatherDisplay:10.37,2013-02-08 20:55:00,
2013-02-08 15:56:00,57.0,35.9,29.88,NW,309,5.8,5.8,45,0.00,OVC,,0.01,WeatherDisplay:10.37,2013-02-08 20:56:00,
2013-02-08 15:59:00,57.2,35.5,29.88,NNW,347,12.7,12.7,44,0.00,OVC,,0.01,WeatherDisplay:10.37,2013-02-08 20:59:00,
2013-02-08 16:00:00,57.3,35.0,29.88,NNW,327,19.3,19.3,43,0.00,OVC,,0.01,WeatherDisplay:10.37,2013-02-08 21:00:00,
2013-02-08 16:01:00,57.3,35.0,29.88,NNW,332,17.5,17.5,43,0.00,OVC,,0.01,WeatherDisplay:10.37,2013-02-08 21:01:00,
2013-02-08 16:02:00,57.3,36.1,29.88,NW,325,19.6,19.6,45,0.00,OVC,,0.01,WeatherDisplay:10.37,2013-02-08 21:02:00,
2013-02-08 16:04:00,57.3,35.6,29.88,NW,311,10.4,10.4,44,0.00,OVC,,0.01,WeatherDisplay:10.37,2013-02-08 21:04:00,
2013-02-08 16:06:00,57.4,36.2,29.88,NNE,31,6.9,6.9,45,0.00,OVC,,0.01,WeatherDisplay:10.37,2013-02-08 21:06:00,
2013-02-08 16:07:00,57.5,36.3,29.88,NW,307,5.3,5.3,45,0.00,OVC,,0.01,WeatherDisplay:10.37,2013-02-08 21:07:00,
2013-02-08 16:09:00,57.7,36.5,29.88,North,353,5.8,5.8,45,0.00,OVC,,0.01,WeatherDisplay:10.37,2013-02-08 21:09:00,
2013-02-08 16:11:00,57.8,37.7,29.88,NW,304,5.8,5.8,47,0.00,OVC,,0.01,WeatherDisplay:10.37,2013-02-08 21:11:00,
2013-02-08 16:12:00,57.9,37.2,29.88,West,277,3.5,3.5,46,0.00,OVC,,0.01,WeatherDisplay:10.37,2013-02-08 21:12:00,
2013-02-08 16:15:00,58.0,35.6,29.88,NW,311,9.2,9.2,43,0.00,OVC,,0.01,WeatherDisplay:10.37,2013-02-08 21:15:00,
2013-02-08 16:16:00,58.0,35.6,29.88,NW,314,12.3,12.3,43,0.00,OVC,,0.01,WeatherDisplay:10.37,2013-02-08 21:16:00,
2013-02-08 16:17:00,58.0,36.2,29.89,NW,315,12.7,12.7,44,0.00,OVC,,0.01,WeatherDisplay:10.37,2013-02-08 21:17:00,
2013-02-08 16:20:00,58.1,36.3,29.89,NNW,327,5.8,5.8,44,0.00,OVC,,0.01,WeatherDisplay:10.37,2013-02-08 21:20:00,
2013-02-08 16:21:00,58.1,36.9,29.89,NW,311,5.8,5.8,45,0.00,OVC,,0.01,WeatherDisplay:10.37,2013-02-08 21:21:00,
2013-02-08 16:22:00,58.1,36.3,29.89,NE,51,3.5,3.5,44,0.00,OVC,,0.01,WeatherDisplay:10.37,2013-02-08 21:22:00,
2013-02-08 16:25:00,58.2,36.9,29.89,WNW,298,6.9,6.9,45,0.00,OVC,,0.01,WeatherDisplay:10.37,2013-02-08 21:25:00,
2013-02-08 16:26:00,58.2,38.1,29.89,WNW,297,2.3,2.3,47,0.00,OVC,,0.01,WeatherDisplay:10.37,2013-02-08 21:26:00,
2013-02-08 16:27:00,58.2,38.1,29.89,NW,304,5.3,5.3,47,0.00,OVC,,0.01,WeatherDisplay:10.37,2013-02-08 21:27:00,
2013-02-08 16:30:00,58.1,38.0,29.89,WNW,302,3.5,3.5,47,0.00,OVC,,0.01,WeatherDisplay:10.37,2013-02-08 21:30:00,
2013-02-08 16:31:00,58.1,39.0,29.89,WNW,302,2.3,2.3,49,0.00,OVC,,0.01,WeatherDisplay:10.37,2013-02-08 21:31:00,
2013-02-08 16:32:00,58.1,38.5,29.90,WSW,256,2.3,2.3,48,0.00,OVC,,0.01,WeatherDisplay:10.37,2013-02-08 21:32:00,
2013-02-08 16:33:00,58.1,38.5,29.90,WSW,257,2.3,2.3,48,0.00,OVC,,0.01,WeatherDisplay:10.37,2013-02-08 21:33:00,
2013-02-08 16:36:00,58.3,37.6,29.90,NW,314,6.9,6.9,46,0.00,OVC,,0.01,WeatherDisplay:10.37,2013-02-08 21:36:00,
2013-02-08 16:38:00,58.2,38.1,29.90,NNW,327,9.2,9.2,47,0.00,OVC,,0.01,WeatherDisplay:10.37,2013-02-08 21:38:00,
2013-02-08 16:41:00,58.0,36.8,29.90,NW,310,5.8,5.8,45,0.00,OVC,,0.01,WeatherDisplay:10.37,2013-02-08 21:41:00,
2013-02-08 16:43:00,58.0,36.8,29.90,WNW,295,6.9,6.9,45,0.00,OVC,,0.01,WeatherDisplay:10.37,2013-02-08 21:43:00,
2013-02-08 16:46:00,57.9,37.2,29.90,WNW,291,5.8,5.8,46,0.00,OVC,,0.01,WeatherDisplay:10.37,2013-02-08 21:46:00,
2013-02-08 16:47:00,57.9,37.2,29.90,West,281,5.8,5.8,46,0.00,OVC,,0.01,WeatherDisplay:10.37,2013-02-08 21:47:00,
2013-02-08 16:48:00,58.0,37.3,29.90,WNW,288,3.5,3.5,46,0.00,OVC,,0.01,WeatherDisplay:10.37,2013-02-08 21:48:00,
2013-02-08 16:49:00,58.0,37.3,29.90,WNW,288,2.3,2.3,46,0.00,OVC,,0.01,WeatherDisplay:10.37,2013-02-08 21:49:00,
2013-02-08 16:52:00,57.8,36.6,29.90,WNW,291,3.5,3.5,45,0.00,OVC,,0.01,WeatherDisplay:10.37,2013-02-08 21:52:00,
2013-02-08 16:53:00,57.8,37.1,29.90,SSW,195,3.5,3.5,46,0.00,OVC,,0.01,WeatherDisplay:10.37,2013-02-08 21:53:00,
2013-02-08 16:54:00,57.8,36.6,29.90,SSW,195,2.3,2.3,45,0.00,OVC,,0.01,WeatherDisplay:10.37,2013-02-08 21:54:00,
2013-02-08 16:57:00,58.1,38.0,29.90,SSW,195,0.0,0.0,47,0.00,OVC,,0.01,WeatherDisplay:10.37,2013-02-08 21:57:00,
2013-02-08 16:58:00,58.2,37.5,29.90,SSW,195,0.0,0.0,46,0.00,OVC,,0.01,WeatherDisplay:10.37,2013-02-08 21:58:00,
2013-02-08 16:59:00,58.3,37.6,29.90,SSW,195,1.8,0.0,46,0.00,OVC,,0.01,WeatherDisplay:10.37,2013-02-08 21:59:00,
2013-02-08 17:02:00,58.5,37.2,29.90,SW,215,5.8,5.8,45,0.00,SCT,,0.01,WeatherDisplay:10.37,2013-02-08 22:02:00,
2013-02-08 17:04:00,58.4,36.6,29.90,West,276,5.8,5.8,44,0.00,SCT,,0.01,WeatherDisplay:10.37,2013-02-08 22:04:00,
2013-02-08 17:07:00,58.0,35.6,29.90,WNW,299,7.0,7.0,43,0.00,SCT,,0.01,WeatherDisplay:10.37,2013-02-08 22:07:00,
2013-02-08 17:09:00,57.9,35.5,29.90,SSW,198,5.8,5.8,43,0.00,SCT,,0.01,WeatherDisplay:10.37,2013-02-08 22:09:00,
2013-02-08 17:12:00,57.4,35.6,29.90,South,188,3.5,3.5,44,0.00,SCT,,0.01,WeatherDisplay:10.37,2013-02-08 22:12:00,
2013-02-08 17:13:00,57.3,35.6,29.90,WNW,286,3.5,3.5,44,0.00,SCT,,0.01,WeatherDisplay:10.37,2013-02-08 22:13:00,
2013-02-08 17:14:00,57.2,35.5,29.90,WNW,290,3.5,3.5,44,0.00,SCT,,0.01,WeatherDisplay:10.37,2013-02-08 22:14:00,
2013-02-08 17:15:00,57.0,35.3,29.90,SSW,212,1.8,1.8,44,0.00,SCT,,0.01,WeatherDisplay:10.37,2013-02-08 22:15:00,
2013-02-08 17:17:00,56.8,35.7,29.91,WNW,300,3.5,3.5,45,0.00,SCT,,0.01,WeatherDisplay:10.37,2013-02-08 22:17:00,
2013-02-08 17:18:00,56.7,35.6,29.91,SW,221,3.5,3.5,45,0.00,SCT,,0.01,WeatherDisplay:10.37,2013-02-08 22:18:00,
2013-02-08 17:19:00,56.6,35.5,29.91,West,269,5.3,5.3,45,0.00,SCT,,0.01,WeatherDisplay:10.37,2013-02-08 22:19:00,
2013-02-08 17:20:00,56.5,36.0,29.91,WSW,245,5.8,5.8,46,0.00,SCT,,0.01,WeatherDisplay:10.37,2013-02-08 22:20:00,
2013-02-08 17:22:00,56.2,35.1,29.91,NW,308,3.5,3.5,45,0.00,SCT,,0.01,WeatherDisplay:10.37,2013-02-08 22:22:00,
2013-02-08 17:24:00,56.1,35.0,29.91,SW,225,5.8,5.8,45,0.00,SCT,,0.01,WeatherDisplay:10.37,2013-02-08 22:24:00,
2013-02-08 17:25:00,56.0,36.6,29.91,West,259,5.8,5.8,48,0.00,SCT,,0.01,WeatherDisplay:10.37,2013-02-08 22:25:00,
2013-02-08 17:28:00,55.7,35.2,29.91,West,271,3.5,3.5,46,0.00,SCT,,0.01,WeatherDisplay:10.37,2013-02-08 22:28:00,
2013-02-08 17:29:00,55.6,36.2,29.91,SW,227,8.7,8.7,48,0.00,SCT,,0.01,WeatherDisplay:10.37,2013-02-08 22:29:00,
2013-02-08 17:30:00,55.5,35.6,29.91,West,264,9.2,9.2,47,0.00,SCT,,0.01,WeatherDisplay:10.37,2013-02-08 22:30:00,
2013-02-08 17:33:00,55.3,35.9,29.91,WSW,255,5.8,5.8,48,0.00,SCT,,0.01,WeatherDisplay:10.37,2013-02-08 22:33:00,
2013-02-08 17:34:00,55.3,35.9,29.91,WSW,256,2.3,2.3,48,0.00,SCT,,0.01,WeatherDisplay:10.37,2013-02-08 22:34:00,
2013-02-08 17:35:00,55.1,35.7,29.91,SW,216,2.3,2.3,48,0.00,SCT,,0.01,WeatherDisplay:10.37,2013-02-08 22:35:00,
2013-02-08 17:38:00,54.9,36.1,29.92,WNW,298,2.3,2.3,49,0.00,SCT,,0.01,WeatherDisplay:10.37,2013-02-08 22:38:00,
2013-02-08 17:39:00,54.7,36.4,29.92,SW,236,9.2,9.2,50,0.00,SCT,,0.01,WeatherDisplay:10.37,2013-02-08 22:39:00,
2013-02-08 17:40:00,54.7,35.9,29.91,WSW,252,9.2,9.2,49,0.00,SCT,,0.01,WeatherDisplay:10.37,2013-02-08 22:40:00,
2013-02-08 17:44:00,54.3,34.5,29.92,NW,320,5.8,5.8,47,0.00,SCT,,0.01,WeatherDisplay:10.37,2013-02-08 22:44:00,
2013-02-08 17:45:00,54.2,34.9,29.92,WNW,285,9.2,9.2,48,0.00,SCT,,0.01,WeatherDisplay:10.37,2013-02-08 22:45:00,
2013-02-08 17:46:00,54.2,33.9,29.92,WSW,246,9.2,9.2,46,0.00,SCT,,0.01,WeatherDisplay:10.37,2013-02-08 22:46:00,
2013-02-08 17:49:00,54.1,33.8,29.92,North,358,9.2,9.2,46,0.00,SCT,,0.01,WeatherDisplay:10.37,2013-02-08 22:49:00,
2013-02-08 17:50:00,54.1,33.8,29.92,WNW,298,6.9,6.9,46,0.00,SCT,,0.01,WeatherDisplay:10.37,2013-02-08 22:50:00,
2013-02-08 17:51:00,54.0,33.7,29.92,WNW,297,6.9,6.9,46,0.00,SCT,,0.01,WeatherDisplay:10.37,2013-02-08 22:51:00,
2013-02-08 17:54:00,53.9,34.1,29.93,NW,311,2.3,2.3,47,0.00,SCT,,0.01,WeatherDisplay:10.37,2013-02-08 22:54:00,
2013-02-08 17:55:00,53.8,33.5,29.93,NW,311,0.0,0.0,46,0.00,SCT,,0.01,WeatherDisplay:10.37,2013-02-08 22:55:00,
2013-02-08 17:56:00,53.7,33.9,29.93,NW,309,0.0,0.0,47,0.00,SCT,,0.01,WeatherDisplay:10.37,2013-02-08 22:56:00,
2013-02-08 17:59:00,53.5,33.2,29.93,NW,308,2.3,2.3,46,0.00,SCT,,0.01,WeatherDisplay:10.37,2013-02-08 22:59:00,
2013-02-08 18:00:00,53.4,33.7,29.93,NW,308,0.0,0.0,47,0.00,CLR,,0.01,WeatherDisplay:10.37,2013-02-08 23:00:00,
2013-02-08 18:01:00,53.4,33.7,29.93,NW,308,0.0,0.0,47,0.00,CLR,,0.01,WeatherDisplay:10.37,2013-02-08 23:01:00,
2013-02-08 18:02:00,53.3,33.6,29.93,NW,308,0.0,0.0,47,0.00,CLR,,0.01,WeatherDisplay:10.37,2013-02-08 23:02:00,
2013-02-08 18:04:00,53.0,34.3,29.93,North,354,2.3,2.3,49,0.00,CLR,,0.01,WeatherDisplay:10.37,2013-02-08 23:04:00,
2013-02-08 18:06:00,52.9,33.7,29.93,North,354,3.5,3.5,48,0.00,CLR,,0.01,WeatherDisplay:10.37,2013-02-08 23:06:00,
2013-02-08 18:07:00,52.8,33.6,29.93,NW,322,2.3,2.3,48,0.00,CLR,,0.01,WeatherDisplay:10.37,2013-02-08 23:07:00,
2013-02-08 18:10:00,52.6,34.0,29.93,SSW,203,2.3,0.0,49,0.00,CLR,,0.01,WeatherDisplay:10.37,2013-02-08 23:10:00,
2013-02-08 18:11:00,52.5,34.4,29.93,SSW,202,0.0,0.0,50,0.00,CLR,,0.01,WeatherDisplay:10.37,2013-02-08 23:11:00,
2013-02-08 18:12:00,52.4,33.3,29.93,SSW,203,0.0,0.0,48,0.00,CLR,,0.01,WeatherDisplay:10.37,2013-02-08 23:12:00,
2013-02-08 18:15:00,52.2,33.6,29.94,NNW,343,0.0,0.0,49,0.00,CLR,,0.01,WeatherDisplay:10.37,2013-02-08 23:15:00,
2013-02-08 18:16:00,52.2,33.6,29.94,NNW,343,0.0,0.0,49,0.00,CLR,,0.01,WeatherDisplay:10.37,2013-02-08 23:16:00,
2013-02-08 18:17:00,52.0,33.9,29.94,NNW,343,0.0,0.0,50,0.00,CLR,,0.01,WeatherDisplay:10.37,2013-02-08 23:17:00,
2013-02-08 18:20:00,51.7,33.6,29.94,NNW,343,0.0,0.0,50,0.00,CLR,,0.01,WeatherDisplay:10.37,2013-02-08 23:20:00,
2013-02-08 18:21:00,51.7,33.6,29.94,NNW,343,0.0,0.0,50,0.00,CLR,,0.01,WeatherDisplay:10.37,2013-02-08 23:21:00,
2013-02-08 18:23:00,51.5,33.5,29.94,NNW,343,0.0,0.0,50,0.00,CLR,,0.01,WeatherDisplay:10.37,2013-02-08 23:23:00,
2013-02-08 18:26:00,51.1,33.6,29.94,NNW,343,0.0,0.0,51,0.00,CLR,,0.01,WeatherDisplay:10.37,2013-02-08 23:26:00,
2013-02-08 18:27:00,51.0,33.5,29.94,NNW,343,0.0,0.0,51,0.00,CLR,,0.01,WeatherDisplay:10.37,2013-02-08 23:27:00,
2013-02-08 18:28:00,50.9,33.4,29.94,NNW,343,1.8,1.8,51,0.00,CLR,,0.01,WeatherDisplay:10.37,2013-02-08 23:28:00,
2013-02-08 18:31:00,50.5,34.0,29.94,WNW,297,2.3,2.3,53,0.00,CLR,,0.01,WeatherDisplay:10.37,2013-02-08 23:31:00,
2013-02-08 18:32:00,50.4,33.9,29.94,WNW,296,2.3,0.0,53,0.00,CLR,,0.01,WeatherDisplay:10.37,2013-02-08 23:32:00,
2013-02-08 18:33:00,50.3,33.8,29.94,WNW,296,2.3,2.3,53,0.00,CLR,,0.01,WeatherDisplay:10.37,2013-02-08 23:33:00,
2013-02-08 18:36:00,50.0,34.5,29.95,WNW,296,2.3,2.3,55,0.00,CLR,,0.01,WeatherDisplay:10.37,2013-02-08 23:36:00,
2013-02-08 18:37:00,49.8,34.7,29.95,WNW,296,2.3,0.0,56,0.00,CLR,,0.01,WeatherDisplay:10.37,2013-02-08 23:37:00,
2013-02-08 18:38:00,49.8,34.3,29.95,WNW,297,2.3,0.0,55,0.00,CLR,,0.01,WeatherDisplay:10.37,2013-02-08 23:38:00,
2013-02-08 18:42:00,49.5,34.4,29.95,WNW,296,0.0,0.0,56,0.00,CLR,,0.01,WeatherDisplay:10.37,2013-02-08 23:42:00,
2013-02-08 18:43:00,49.4,33.9,29.95,WNW,297,0.0,0.0,55,0.00,CLR,,0.01,WeatherDisplay:10.37,2013-02-08 23:43:00,
2013-02-08 18:47:00,49.2,34.2,29.95,NW,319,0.0,0.0,56,0.00,CLR,,0.01,WeatherDisplay:10.37,2013-02-08 23:47:00,
2013-02-08 18:49:00,49.0,33.5,29.95,NW,319,0.0,0.0,55,0.00,CLR,,0.01,WeatherDisplay:10.37,2013-02-08 23:49:00,
2013-02-08 18:52:00,49.0,34.0,29.95,NW,319,0.0,0.0,56,0.00,CLR,,0.01,WeatherDisplay:10.37,2013-02-08 23:52:00,
2013-02-08 18:54:00,48.9,33.4,29.95,NNE,23,1.8,1.8,55,0.00,CLR,,0.01,WeatherDisplay:10.37,2013-02-08 23:54:00,
2013-02-08 18:57:00,48.8,34.2,29.96,NNE,23,2.3,2.3,57,0.00,CLR,,0.01,WeatherDisplay:10.37,2013-02-08 23:57:00,
2013-02-08 18:58:00,48.8,34.2,29.96,NNE,23,2.3,2.3,57,0.00,CLR,,0.01,WeatherDisplay:10.37,2013-02-08 23:58:00,
2013-02-08 18:59:00,48.7,34.1,29.96,NNE,23,2.3,2.3,57,0.00,CLR,,0.01,WeatherDisplay:10.37,2013-02-08 23:59:00,
2013-02-08 19:02:00,48.4,33.9,29.96,NNE,23,0.0,0.0,57,0.00,CLR,,0.01,WeatherDisplay:10.37,2013-02-09 00:02:00,
2013-02-08 19:03:00,48.3,33.8,29.96,NNE,23,0.0,0.0,57,0.00,CLR,,0.01,WeatherDisplay:10.37,2013-02-09 00:03:00,
2013-02-08 19:04:00,48.2,33.7,29.96,NNE,23,1.8,1.8,57,0.00,CLR,,0.01,WeatherDisplay:10.37,2013-02-09 00:04:00,
2013-02-08 19:07:00,47.9,33.4,29.96,NNE,23,0.0,0.0,57,0.00,CLR,,0.01,WeatherDisplay:10.37,2013-02-09 00:07:00,
2013-02-08 19:08:00,47.9,33.4,29.96,NNE,23,0.0,0.0,57,0.00,CLR,,0.01,WeatherDisplay:10.37,2013-02-09 00:08:00,
2013-02-08 19:09:00,47.8,34.2,29.96,NNW,342,0.0,0.0,59,0.00,CLR,,0.01,WeatherDisplay:10.37,2013-02-09 00:09:00,
2013-02-08 19:13:00,47.5,33.9,29.96,SE,125,0.0,0.0,59,0.00,CLR,,0.01,WeatherDisplay:10.37,2013-02-09 00:13:00,
2013-02-08 19:14:00,47.3,33.7,29.97,South,176,0.0,0.5,59,0.00,CLR,,0.01,WeatherDisplay:10.37,2013-02-09 00:14:00,
2013-02-08 19:18:00,47.2,33.2,29.97,South,176,0.0,0.0,58,0.00,CLR,,0.01,WeatherDisplay:10.37,2013-02-09 00:18:00,
2013-02-08 19:19:00,47.0,34.2,29.97,South,176,0.0,0.0,61,0.00,CLR,,0.01,WeatherDisplay:10.37,2013-02-09 00:19:00,
2013-02-08 19:23:00,46.5,32.9,29.97,South,176,0.0,0.0,59,0.00,CLR,,0.01,WeatherDisplay:10.37,2013-02-09 00:23:00,
2013-02-08 19:25:00,46.4,32.8,29.97,SSE,152,2.3,0.0,59,0.00,CLR,,0.01,WeatherDisplay:10.37,2013-02-09 00:25:00,
2013-02-08 19:28:00,46.2,33.1,29.97,East,88,2.3,2.3,60,0.00,CLR,,0.01,WeatherDisplay:10.37,2013-02-09 00:28:00,
2013-02-08 19:29:00,46.2,32.7,29.97,East,88,3.5,3.5,59,0.00,CLR,,0.01,WeatherDisplay:10.37,2013-02-09 00:29:00,
2013-02-08 19:30:00,46.3,33.2,29.97,NNE,27,2.3,2.3,60,0.00,CLR,,0.01,WeatherDisplay:10.37,2013-02-09 00:30:00,
2013-02-08 19:33:00,46.5,32.9,29.98,WNW,302,2.3,2.3,59,0.00,CLR,,0.01,WeatherDisplay:10.37,2013-02-09 00:33:00,
2013-02-08 19:34:00,46.5,32.9,29.98,North,358,3.5,3.5,59,0.00,CLR,,0.01,WeatherDisplay:10.37,2013-02-09 00:34:00,
2013-02-08 19:35:00,46.7,31.8,29.98,NNW,330,3.5,3.5,56,0.00,CLR,,0.01,WeatherDisplay:10.37,2013-02-09 00:35:00,
2013-02-08 19:39:00,47.0,33.8,29.98,NW,325,7.0,7.0,60,0.00,CLR,,0.01,WeatherDisplay:10.37,2013-02-09 00:39:00,
2013-02-08 19:40:00,47.2,31.4,29.98,SW,232,9.2,9.2,54,0.00,CLR,,0.01,WeatherDisplay:10.37,2013-02-09 00:40:00,
2013-02-08 19:44:00,48.0,31.2,29.98,NW,316,5.8,5.8,52,0.00,CLR,,0.01,WeatherDisplay:10.37,2013-02-09 00:44:00,
2013-02-08 19:45:00,48.2,30.9,29.98,NW,312,3.5,3.5,51,0.00,CLR,,0.01,WeatherDisplay:10.37,2013-02-09 00:45:00,
2013-02-08 19:49:00,48.5,31.2,29.98,NW,309,3.5,3.5,51,0.00,CLR,,0.01,WeatherDisplay:10.37,2013-02-09 00:49:00,
2013-02-08 19:50:00,48.6,30.8,29.98,WNW,302,3.5,3.5,50,0.00,CLR,,0.01,WeatherDisplay:10.37,2013-02-09 00:50:00,
2013-02-08 19:51:00,48.6,30.8,29.98,WNW,302,3.5,3.5,50,0.00,CLR,,0.01,WeatherDisplay:10.37,2013-02-09 00:51:00,
2013-02-08 19:54:00,48.7,30.4,29.98,WNW,297,3.5,3.5,49,0.00,CLR,,0.01,WeatherDisplay:10.37,2013-02-09 00:54:00,
2013-02-08 19:55:00,48.7,30.4,29.99,WNW,300,5.8,5.8,49,0.00,CLR,,0.01,WeatherDisplay:10.37,2013-02-09 00:55:00,
2013-02-08 19:56:00,48.7,30.4,29.99,WNW,299,5.8,5.8,49,0.00,CLR,,0.01,WeatherDisplay:10.37,2013-02-09 00:56:00,
2013-02-08 19:59:00,48.8,30.5,29.99,WNW,292,3.5,3.5,49,0.00,CLR,,0.01,WeatherDisplay:10.37,2013-02-09 00:59:00,
2013-02-08 20:01:00,48.8,30.0,29.99,WNW,300,2.3,2.3,48,0.00,CLR,,0.01,WeatherDisplay:10.37,2013-02-09 01:01:00,
2013-02-08 20:05:00,48.5,30.7,29.99,WNW,294,2.3,2.3,50,0.00,CLR,,0.01,WeatherDisplay:10.37,2013-02-09 01:05:00,
2013-02-08 20:06:00,48.3,31.0,29.99,WNW,294,2.3,2.3,51,0.00,CLR,,0.01,WeatherDisplay:10.37,2013-02-09 01:06:00,
2013-02-08 20:10:00,47.9,30.1,29.99,NW,308,2.3,2.3,50,0.00,CLR,,0.01,WeatherDisplay:10.37,2013-02-09 01:10:00,
2013-02-08 20:11:00,47.8,30.0,29.99,NW,315,3.5,3.5,50,0.00,CLR,,0.01,WeatherDisplay:10.37,2013-02-09 01:11:00,
2013-02-08 20:12:00,47.8,30.0,29.99,NW,311,3.5,3.5,50,0.00,CLR,,0.01,WeatherDisplay:10.37,2013-02-09 01:12:00,
2013-02-08 20:15:00,47.8,30.5,30.00,West,281,3.5,3.5,51,0.00,CLR,,0.01,WeatherDisplay:10.37,2013-02-09 01:15:00,
2013-02-08 20:16:00,47.8,30.5,30.00,WSW,249,3.5,3.5,51,0.00,CLR,,0.01,WeatherDisplay:10.37,2013-02-09 01:16:00,
2013-02-08 20:17:00,47.8,31.0,30.00,WSW,248,3.5,3.5,52,0.00,CLR,,0.01,WeatherDisplay:10.37,2013-02-09 01:17:00,
2013-02-08 20:20:00,47.5,30.7,29.99,West,278,2.3,2.3,52,0.00,CLR,,0.01,WeatherDisplay:10.37,2013-02-09 01:20:00,
2013-02-08 20:21:00,47.4,30.6,29.99,SSW,205,2.3,2.3,52,0.00,CLR,,0.01,WeatherDisplay:10.37,2013-02-09 01:21:00,
2013-02-08 20:22:00,47.3,31.0,29.99,WSW,248,2.3,2.3,53,0.00,CLR,,0.01,WeatherDisplay:10.37,2013-02-09 01:22:00,
2013-02-08 20:25:00,46.8,31.0,30.00,North,8,3.5,3.5,54,0.00,CLR,,0.01,WeatherDisplay:10.37,2013-02-09 01:25:00,
2013-02-08 20:26:00,46.8,31.0,30.00,North,5,3.5,3.5,54,0.00,CLR,,0.01,WeatherDisplay:10.37,2013-02-09 01:26:00,
2013-02-08 20:27:00,46.7,30.9,30.00,NW,314,2.3,2.3,54,0.00,CLR,,0.01,WeatherDisplay:10.37,2013-02-09 01:27:00,
2013-02-08 20:31:00,46.7,29.5,30.00,WNW,293,5.8,5.8,51,0.00,CLR,,0.01,WeatherDisplay:10.37,2013-02-09 01:31:00,
2013-02-08 20:32:00,46.8,29.6,30.00,NW,319,3.5,3.5,51,0.00,CLR,,0.01,WeatherDisplay:10.37,2013-02-09 01:32:00,
2013-02-08 20:36:00,47.1,29.9,30.00,WSW,252,3.5,3.5,51,0.00,CLR,,0.01,WeatherDisplay:10.37,2013-02-09 01:36:00,
2013-02-08 20:37:00,47.0,30.7,30.01,East,85,3.5,3.5,53,0.00,CLR,,0.01,WeatherDisplay:10.37,2013-02-09 01:37:00,
2013-02-08 20:41:00,46.8,30.1,30.01,NNE,13,10.4,10.4,52,0.00,CLR,,0.01,WeatherDisplay:10.37,2013-02-09 01:41:00,
2013-02-08 20:42:00,46.8,30.1,30.01,NNW,333,10.4,10.4,52,0.00,CLR,,0.01,WeatherDisplay:10.37,2013-02-09 01:42:00,
2013-02-08 20:43:00,46.8,30.6,30.01,NW,319,3.5,3.5,53,0.00,CLR,,0.01,WeatherDisplay:10.37,2013-02-09 01:43:00,
2013-02-08 20:47:00,46.9,29.2,30.01,WNW,300,6.9,6.9,50,0.00,CLR,,0.01,WeatherDisplay:10.37,2013-02-09 01:47:00,
2013-02-08 20:48:00,46.9,29.7,30.01,North,360,6.9,6.9,51,0.00,CLR,,0.01,WeatherDisplay:10.37,2013-02-09 01:48:00,
2013-02-08 20:52:00,47.0,29.3,30.02,North,354,8.7,8.7,50,0.00,CLR,,0.01,WeatherDisplay:10.37,2013-02-09 01:52:00,
2013-02-08 20:53:00,47.0,29.8,30.02,West,271,9.2,9.2,51,0.00,CLR,,0.01,WeatherDisplay:10.37,2013-02-09 01:53:00,
2013-02-08 20:57:00,46.8,29.6,30.02,NNW,328,5.8,5.8,51,0.00,CLR,,0.01,WeatherDisplay:10.37,2013-02-09 01:57:00,
2013-02-08 20:58:00,46.8,30.1,30.02,NNW,327,3.5,3.5,52,0.00,CLR,,0.01,WeatherDisplay:10.37,2013-02-09 01:58:00,
2013-02-08 21:02:00,46.7,30.5,30.02,WNW,296,3.5,3.5,53,0.00,CLR,,0.01,WeatherDisplay:10.37,2013-02-09 02:02:00,
2013-02-08 21:03:00,46.7,30.0,30.03,NNE,29,9.2,9.2,52,0.00,CLR,,0.01,WeatherDisplay:10.37,2013-02-09 02:03:00,
2013-02-08 21:04:00,46.6,29.9,30.03,NW,319,9.2,9.2,52,0.00,CLR,,0.01,WeatherDisplay:10.37,2013-02-09 02:04:00,
2013-02-08 21:07:00,46.4,30.2,30.03,WNW,302,3.5,3.5,53,0.00,CLR,,0.01,WeatherDisplay:10.37,2013-02-09 02:07:00,
2013-02-08 21:08:00,46.4,30.2,30.03,WNW,302,3.5,3.5,53,0.00,CLR,,0.01,WeatherDisplay:10.37,2013-02-09 02:08:00,
2013-02-08 21:09:00,46.3,30.1,30.03,NW,312,5.8,5.8,53,0.00,CLR,,0.01,WeatherDisplay:10.37,2013-02-09 02:09:00,
2013-02-08 21:13:00,46.2,30.0,30.03,NW,319,6.9,6.9,53,0.00,CLR,,0.01,WeatherDisplay:10.37,2013-02-09 02:13:00,
2013-02-08 21:15:00,46.1,29.9,30.03,NNW,327,7.0,7.0,53,0.00,CLR,,0.01,WeatherDisplay:10.37,2013-02-09 02:15:00,
2013-02-08 21:18:00,46.0,30.3,30.04,NNW,340,3.5,3.5,54,0.00,CLR,,0.01,WeatherDisplay:10.37,2013-02-09 02:18:00,
2013-02-08 21:19:00,45.9,30.2,30.04,WNW,302,3.5,3.5,54,0.00,CLR,,0.01,WeatherDisplay:10.37,2013-02-09 02:19:00,
2013-02-08 21:20:00,45.9,30.2,30.04,NW,316,9.2,9.2,54,0.00,CLR,,0.01,WeatherDisplay:10.37,2013-02-09 02:20:00,
2013-02-08 21:23:00,45.7,30.0,30.04,NW,319,5.8,5.8,54,0.00,CLR,,0.01,WeatherDisplay:10.37,2013-02-09 02:23:00,
2013-02-08 21:24:00,45.7,30.0,30.04,WNW,302,5.8,5.8,54,0.00,CLR,,0.01,WeatherDisplay:10.37,2013-02-09 02:24:00,
2013-02-08 21:25:00,45.6,30.3,30.04,WNW,302,3.5,3.5,55,0.00,CLR,,0.01,WeatherDisplay:10.37,2013-02-09 02:25:00,
2013-02-08 21:28:00,45.3,30.1,30.05,NW,325,7.0,7.0,55,0.00,CLR,,0.01,WeatherDisplay:10.37,2013-02-09 02:28:00,
2013-02-08 21:29:00,45.3,30.1,30.05,NW,325,5.8,5.8,55,0.00,CLR,,0.01,WeatherDisplay:10.37,2013-02-09 02:29:00,
2013-02-08 21:30:00,45.2,30.0,30.05,SW,228,6.9,6.9,55,0.00,CLR,,0.01,WeatherDisplay:10.37,2013-02-09 02:30:00,
2013-02-08 21:34:00,45.2,29.5,30.05,NW,318,10.4,10.4,54,0.00,CLR,,0.01,WeatherDisplay:10.37,2013-02-09 02:34:00,
2013-02-08 21:35:00,45.2,29.5,30.05,North,354,10.4,10.4,54,0.00,CLR,,0.01,WeatherDisplay:10.37,2013-02-09 02:35:00,
2013-02-08 21:39:00,44.9,29.7,30.05,NNW,329,5.8,5.8,55,0.00,CLR,,0.01,WeatherDisplay:10.37,2013-02-09 02:39:00,
2013-02-08 21:40:00,44.9,29.7,30.05,NNW,340,5.8,5.8,55,0.00,CLR,,0.01,WeatherDisplay:10.37,2013-02-09 02:40:00,
2013-02-08 21:44:00,44.7,29.1,30.05,NW,304,9.2,9.2,54,0.00,CLR,,0.01,WeatherDisplay:10.37,2013-02-09 02:44:00,
2013-02-08 21:45:00,44.7,30.0,30.05,NW,305,9.2,9.2,56,0.00,CLR,,0.01,WeatherDisplay:10.37,2013-02-09 02:45:00,
2013-02-08 21:46:00,44.7,29.5,30.05,NNW,346,5.3,5.3,55,0.00,CLR,,0.01,WeatherDisplay:10.37,2013-02-09 02:46:00,
2013-02-08 21:49:00,44.5,29.3,30.05,NNW,328,9.2,9.2,55,0.00,CLR,,0.01,WeatherDisplay:10.37,2013-02-09 02:49:00,
2013-02-08 21:50:00,44.5,28.9,30.05,NNW,329,9.2,9.2,54,0.00,CLR,,0.01,WeatherDisplay:10.37,2013-02-09 02:50:00,
2013-02-08 21:51:00,44.5,29.3,30.05,NNW,343,5.8,5.8,55,0.00,CLR,,0.01,WeatherDisplay:10.37,2013-02-09 02:51:00,
2013-02-08 21:55:00,44.5,28.9,30.05,NNE,23,6.9,6.9,54,0.00,CLR,,0.01,WeatherDisplay:10.37,2013-02-09 02:55:00,
2013-02-08 21:56:00,44.5,28.9,30.05,NW,309,6.9,6.9,54,0.00,CLR,,0.01,WeatherDisplay:10.37,2013-02-09 02:56:00,
2013-02-08 22:00:00,44.3,28.7,30.05,WNW,290,10.4,10.4,54,0.00,CLR,,0.01,WeatherDisplay:10.37,2013-02-09 03:00:00,
2013-02-08 22:01:00,44.3,29.1,30.05,SW,231,13.8,13.8,55,0.00,CLR,,0.01,WeatherDisplay:10.37,2013-02-09 03:01:00,
2013-02-08 22:05:00,44.3,29.1,30.06,NW,325,9.2,9.2,55,0.00,CLR,,0.01,WeatherDisplay:10.37,2013-02-09 03:05:00,
2013-02-08 22:07:00,44.2,29.0,30.06,NW,316,5.8,5.8,55,0.00,CLR,,0.01,WeatherDisplay:10.37,2013-02-09 03:07:00,
2013-02-08 22:10:00,44.0,29.3,30.06,WSW,248,5.8,5.8,56,0.00,CLR,,0.01,WeatherDisplay:10.37,2013-02-09 03:10:00,
2013-02-08 22:11:00,44.0,29.3,30.06,WNW,303,5.8,5.8,56,0.00,CLR,,0.01,WeatherDisplay:10.37,2013-02-09 03:11:00,
2013-02-08 22:13:00,43.9,29.2,30.06,NW,305,6.9,6.9,56,0.00,CLR,,0.01,WeatherDisplay:10.37,2013-02-09 03:13:00,
2013-02-08 22:15:00,43.9,29.2,30.06,NW,317,6.9,6.9,56,0.00,CLR,,0.01,WeatherDisplay:10.37,2013-02-09 03:15:00,
2013-02-08 22:16:00,43.9,29.2,30.06,NW,316,6.9,6.9,56,0.00,CLR,,0.01,WeatherDisplay:10.37,2013-02-09 03:16:00,
2013-02-08 22:18:00,43.8,29.1,30.06,NNW,343,5.8,5.8,56,0.00,CLR,,0.01,WeatherDisplay:10.37,2013-02-09 03:18:00,
2013-02-08 22:20:00,43.6,29.4,30.07,WNW,297,3.5,3.5,57,0.00,CLR,,0.01,WeatherDisplay:10.37,2013-02-09 03:20:00,
2013-02-08 22:21:00,43.6,29.4,30.07,WNW,297,3.5,3.5,57,0.00,CLR,,0.01,WeatherDisplay:10.37,2013-02-09 03:21:00,
2013-02-08 22:23:00,43.4,29.2,30.07,NW,319,6.9,6.9,57,0.00,CLR,,0.01,WeatherDisplay:10.37,2013-02-09 03:23:00,
2013-02-08 22:25:00,43.2,29.4,30.07,NW,316,3.5,3.5,58,0.00,CLR,,0.01,WeatherDisplay:10.37,2013-02-09 03:25:00,
2013-02-08 22:26:00,43.2,29.4,30.07,NW,316,3.5,3.5,58,0.00,CLR,,0.01,WeatherDisplay:10.37,2013-02-09 03:26:00,
2013-02-08 22:28:00,43.1,29.3,30.07,NW,322,2.3,2.5,58,0.00,CLR,,0.01,WeatherDisplay:10.37,2013-02-09 03:28:00,
2013-02-08 22:30:00,42.9,29.1,30.07,NW,316,5.8,5.8,58,0.00,CLR,,0.01,WeatherDisplay:10.37,2013-02-09 03:30:00,
2013-02-08 22:31:00,42.9,29.5,30.07,NW,319,5.8,5.8,59,0.00,CLR,,0.01,WeatherDisplay:10.37,2013-02-09 03:31:00,
2013-02-08 22:32:00,42.8,29.0,30.07,NW,305,5.8,5.8,58,0.00,CLR,,0.01,WeatherDisplay:10.37,2013-02-09 03:32:00,
2013-02-08 22:33:00,42.8,29.0,30.07,NW,314,5.8,5.8,58,0.00,CLR,,0.01,WeatherDisplay:10.37,2013-02-09 03:33:00,
2013-02-08 22:35:00,42.7,29.4,30.07,NW,316,2.3,2.3,59,0.00,CLR,,0.01,WeatherDisplay:10.37,2013-02-09 03:35:00,
2013-02-08 22:36:00,42.7,29.4,30.07,NW,316,2.3,2.3,59,0.00,CLR,,0.01,WeatherDisplay:10.37,2013-02-09 03:36:00,
2013-02-08 22:37:00,42.7,29.4,30.07,NW,316,2.3,2.3,59,0.00,CLR,,0.01,WeatherDisplay:10.37,2013-02-09 03:37:00,
2013-02-08 22:38:00,42.5,29.2,30.07,NNW,331,5.3,5.3,59,0.00,CLR,,0.01,WeatherDisplay:10.37,2013-02-09 03:38:00,
2013-02-08 22:40:00,42.4,29.5,30.07,NW,309,3.5,3.5,60,0.00,CLR,,0.01,WeatherDisplay:10.37,2013-02-09 03:40:00,
2013-02-08 22:41:00,42.4,29.1,30.07,SSW,210,2.3,2.3,59,0.00,CLR,,0.01,WeatherDisplay:10.37,2013-02-09 03:41:00,
2013-02-08 22:42:00,42.3,29.4,30.07,WNW,285,3.5,3.5,60,0.00,CLR,,0.01,WeatherDisplay:10.37,2013-02-09 03:42:00,
2013-02-08 22:43:00,42.3,29.4,30.07,NW,314,5.8,5.8,60,0.00,CLR,,0.01,WeatherDisplay:10.37,2013-02-09 03:43:00,
2013-02-08 22:46:00,42.1,29.2,30.07,WNW,292,3.5,3.5,60,0.00,CLR,,0.01,WeatherDisplay:10.37,2013-02-09 03:46:00,
2013-02-08 22:47:00,42.1,29.2,30.07,West,280,3.5,3.5,60,0.00,CLR,,0.01,WeatherDisplay:10.37,2013-02-09 03:47:00,
2013-02-08 22:49:00,41.9,29.4,30.07,WNW,293,3.5,3.5,61,0.00,CLR,,0.01,WeatherDisplay:10.37,2013-02-09 03:49:00,
2013-02-08 22:51:00,41.8,29.3,30.07,WNW,296,6.9,6.9,61,0.00,CLR,,0.01,WeatherDisplay:10.37,2013-02-09 03:51:00,
2013-02-08 22:52:00,41.8,29.7,30.08,WNW,297,6.9,6.9,62,0.00,CLR,,0.01,WeatherDisplay:10.37,2013-02-09 03:52:00,
2013-02-08 22:54:00,41.7,29.2,30.08,NW,312,3.5,3.5,61,0.00,CLR,,0.01,WeatherDisplay:10.37,2013-02-09 03:54:00,
2013-02-08 22:57:00,41.6,29.5,30.08,NW,304,2.3,2.3,62,0.00,CLR,,0.01,WeatherDisplay:10.37,2013-02-09 03:57:00,
2013-02-08 22:59:00,41.5,29.4,30.08,NW,319,3.5,3.5,62,0.00,CLR,,0.01,WeatherDisplay:10.37,2013-02-09 03:59:00,
2013-02-08 23:02:00,41.4,29.3,30.08,NW,318,2.3,2.3,62,0.00,CLR,,0.01,WeatherDisplay:10.37,2013-02-09 04:02:00,
2013-02-08 23:03:00,41.3,29.3,30.08,NW,323,2.3,2.3,62,0.00,CLR,,0.01,WeatherDisplay:10.37,2013-02-09 04:03:00,
2013-02-08 23:04:00,41.3,29.6,30.08,WNW,289,2.3,2.3,63,0.00,CLR,,0.01,WeatherDisplay:10.37,2013-02-09 04:04:00,
2013-02-08 23:07:00,41.1,29.1,30.08,WNW,300,2.3,2.3,62,0.00,CLR,,0.01,WeatherDisplay:10.37,2013-02-09 04:07:00,
2013-02-08 23:08:00,41.1,29.1,30.08,NW,315,2.3,2.3,62,0.00,CLR,,0.01,WeatherDisplay:10.37,2013-02-09 04:08:00,
2013-02-08 23:09:00,41.1,29.5,30.08,NW,314,0.0,0.0,63,0.00,CLR,,0.01,WeatherDisplay:10.37,2013-02-09 04:09:00,
2013-02-08 23:12:00,40.8,29.2,30.08,SSE,148,5.3,5.3,63,0.00,CLR,,0.01,WeatherDisplay:10.37,2013-02-09 04:12:00,
2013-02-08 23:13:00,40.8,29.2,30.08,SE,131,5.8,5.8,63,0.00,CLR,,0.01,WeatherDisplay:10.37,2013-02-09 04:13:00,
2013-02-08 23:14:00,40.7,29.8,30.08,SE,131,2.3,2.3,65,0.00,CLR,,0.01,WeatherDisplay:10.37,2013-02-09 04:14:00,
2013-02-08 23:17:00,40.3,29.1,30.08,SE,127,0.0,0.0,64,0.00,CLR,,0.01,WeatherDisplay:10.37,2013-02-09 04:17:00,
2013-02-08 23:18:00,40.2,29.0,30.08,East,101,2.3,2.3,64,0.00,CLR,,0.01,WeatherDisplay:10.37,2013-02-09 04:18:00,
2013-02-08 23:20:00,40.1,29.3,30.08,ESE,120,2.3,2.3,65,0.00,CLR,,0.01,WeatherDisplay:10.37,2013-02-09 04:20:00,
2013-02-08 23:22:00,39.8,29.0,30.08,SE,145,3.5,3.5,65,0.00,CLR,,0.01,WeatherDisplay:10.37,2013-02-09 04:22:00,
2013-02-08 23:23:00,39.7,28.9,30.08,SE,145,2.3,2.3,65,0.00,CLR,,0.01,WeatherDisplay:10.37,2013-02-09 04:23:00,
2013-02-08 23:25:00,39.6,29.2,30.08,ENE,71,3.5,3.5,66,0.00,CLR,,0.01,WeatherDisplay:10.37,2013-02-09 04:25:00,
2013-02-08 23:27:00,39.6,29.2,30.08,East,91,3.5,3.5,66,0.00,CLR,,0.01,WeatherDisplay:10.37,2013-02-09 04:27:00,
2013-02-08 23:29:00,39.6,29.2,30.08,East,91,2.3,0.0,66,0.00,CLR,,0.01,WeatherDisplay:10.37,2013-02-09 04:29:00,
2013-02-08 23:30:00,39.5,29.1,30.08,East,91,1.8,1.8,66,0.00,CLR,,0.01,WeatherDisplay:10.37,2013-02-09 04:30:00,
2013-02-08 23:32:00,39.4,29.0,30.08,East,91,2.3,2.3,66,0.00,CLR,,0.01,WeatherDisplay:10.37,2013-02-09 04:32:00,
2013-02-08 23:34:00,39.3,28.9,30.08,East,92,2.3,2.3,66,0.00,CLR,,0.01,WeatherDisplay:10.37,2013-02-09 04:34:00,
2013-02-08 23:35:00,39.2,28.8,30.08,East,91,0.0,0.0,66,0.00,CLR,,0.01,WeatherDisplay:10.37,2013-02-09 04:35:00,
2013-02-08 23:38:00,39.1,29.1,30.08,NE,49,0.0,0.1,67,0.00,CLR,,0.01,WeatherDisplay:10.37,2013-02-09 04:38:00,
2013-02-08 23:39:00,38.9,29.2,30.08,NNW,330,3.5,3.5,68,0.00,CLR,,0.01,WeatherDisplay:10.37,2013-02-09 04:39:00,
2013-02-08 23:40:00,38.7,28.7,30.08,East,96,2.3,2.3,67,0.00,CLR,,0.01,WeatherDisplay:10.37,2013-02-09 04:40:00,
2013-02-08 23:43:00,38.5,28.9,30.08,East,94,2.3,2.3,68,0.00,CLR,,0.01,WeatherDisplay:10.37,2013-02-09 04:43:00,
2013-02-08 23:44:00,38.4,28.8,30.08,East,94,2.3,0.0,68,0.00,CLR,,0.01,WeatherDisplay:10.37,2013-02-09 04:44:00,
2013-02-08 23:45:00,38.3,29.0,30.08,East,94,1.8,1.8,69,0.00,CLR,,0.01,WeatherDisplay:10.37,2013-02-09 04:45:00,
2013-02-08 23:48:00,38.2,28.9,30.08,East,94,0.0,0.0,69,0.00,CLR,,0.01,WeatherDisplay:10.37,2013-02-09 04:48:00,
2013-02-08 23:49:00,38.1,28.8,30.08,East,94,0.0,0.0,69,0.00,CLR,,0.01,WeatherDisplay:10.37,2013-02-09 04:49:00,
2013-02-08 23:51:00,38.0,28.7,30.08,East,95,0.0,0.0,69,0.00,CLR,,0.01,WeatherDisplay:10.37,2013-02-09 04:51:00,
2013-02-08 23:54:00,37.8,28.5,30.08,East,91,1.8,1.8,69,0.00,CLR,,0.01,WeatherDisplay:10.37,2013-02-09 04:54:00,
2013-02-08 23:56:00,37.8,28.5,30.08,ENE,61,2.3,2.3,69,0.00,CLR,,0.01,WeatherDisplay:10.37,2013-02-09 04:56:00,
2013-02-08 23:59:00,37.8,28.5,30.09,NNE,16,3.5,3.5,69,0.00,CLR,,0.01,WeatherDisplay:10.37,2013-02-09 04:59:00,